Observation data for Estelline on 01/19/2019      Previous  Date  Next       Current Mesonet Observations  Soil Data  Daily Summary Page  Observations in Plain Language
KES1 190600Z 34023KT 03/M03 A3002 RMK A01 T00291025  RH  067%=      5-min Rain = 0
KES1 190601Z 34021KT 03/M03 A3002 RMK A01 T00291026  RH  067%=      5-min Rain = 0
KES1 190602Z 34021G28KT 03/M03 A3002 RMK A01 T00291026  RH  067%=      5-min Rain = 0
KES1 190603Z 34022KT 03/M03 A3002 RMK A01 T00291025  RH  067%=      5-min Rain = 0
KES1 190604Z 34023KT 03/M03 A3002 RMK A01 T00291026  RH  067%=      5-min Rain = 0
KES1 190605Z 35023KT 03/M03 A3002 RMK A01 T00291026  RH  067%=      5-min Rain = 0
KES1 190606Z 34020KT 03/M03 A3002 RMK A01 T00291026  RH  067%=      5-min Rain = 0
KES1 190607Z 34020KT 03/M03 A3002 RMK A01 T00291025  RH  068%=      5-min Rain = 0
KES1 190608Z 34018KT 03/M03 A3002 RMK A01 T00291026  RH  067%=      5-min Rain = 0
KES1 190609Z 34016KT 03/M03 A3002 RMK A01 T00291026  RH  067%=      5-min Rain = 0
KES1 190610Z 33020G26KT 03/M03 A3002 RMK A01 T00291026  RH  067%=      5-min Rain = 0
KES1 190611Z 34022G27KT 03/M03 A3002 RMK A01 T00291027  RH  067%=      5-min Rain = 0
KES1 190612Z 35027G32KT 03/M03 A3003 RMK A01 T00291028  RH  066%=      5-min Rain = 0
KES1 190613Z 34024G29KT 03/M03 A3003 RMK A01 T00291029  RH  066%=      5-min Rain = 0
KES1 190614Z 34020KT 03/M03 A3003 RMK A01 T00291029  RH  066%=      5-min Rain = 0
KES1 190615Z 35023G29KT 03/M03 A3003 RMK A01 T00291029  RH  066%=      5-min Rain = 0
KES1 190616Z 35021G26KT 03/M03 A3003 RMK A01 T00291029  RH  066%=      5-min Rain = 0
KES1 190617Z 35023G29KT 03/M03 A3003 RMK A01 T00291029  RH  066%=      5-min Rain = 0
KES1 190618Z 34021KT 03/M03 A3003 RMK A01 T00291029  RH  066%=      5-min Rain = 0
KES1 190619Z 34018G24KT 03/M03 A3003 RMK A01 T00291028  RH  066%=      5-min Rain = 0
KES1 190620Z 34020KT 03/M03 A3003 RMK A01 T00291027  RH  067%=      5-min Rain = 0
KES1 190621Z 33020KT 03/M03 A3003 RMK A01 T00291028  RH  067%=      5-min Rain = 0
KES1 190622Z 34017KT 03/M03 A3003 RMK A01 T00291027  RH  067%=      5-min Rain = 0
KES1 190623Z 35018G23KT 03/M03 A3003 RMK A01 T00291027  RH  067%=      5-min Rain = 0
KES1 190624Z 34016KT 03/M03 A3003 RMK A01 T00291029  RH  066%=      5-min Rain = 0
KES1 190625Z 35016KT 03/M03 A3003 RMK A01 T00291028  RH  066%=      5-min Rain = 0
KES1 190626Z 34018KT 03/M03 A3003 RMK A01 T00291028  RH  066%=      5-min Rain = 0
KES1 190627Z 35016KT 03/M03 A3004 RMK A01 T00291029  RH  066%=      5-min Rain = 0
KES1 190628Z 34019G25KT 03/M03 A3004 RMK A01 T00291029  RH  066%=      5-min Rain = 0
KES1 190629Z 35021KT 03/M03 A3004 RMK A01 T00291030  RH  065%=      5-min Rain = 0
KES1 190630Z 35019KT 03/M03 A3004 RMK A01 T00291031  RH  065%=      5-min Rain = 0
KES1 190631Z 34020KT 03/M03 A3004 RMK A01 T00291030  RH  065%=      5-min Rain = 0
KES1 190632Z 34021KT 03/M03 A3004 RMK A01 T00291030  RH  065%=      5-min Rain = 0
KES1 190633Z 34021KT 03/M03 A3004 RMK A01 T00291030  RH  065%=      5-min Rain = 0
KES1 190634Z 35021KT 03/M03 A3004 RMK A01 T00291031  RH  065%=      5-min Rain = 0
KES1 190635Z 35020KT 03/M03 A3004 RMK A01 T00291031  RH  065%=      5-min Rain = 0
KES1 190636Z 34022KT 03/M03 A3004 RMK A01 T00291030  RH  065%=      5-min Rain = 0
KES1 190637Z 34023KT 03/M03 A3004 RMK A01 T00291031  RH  065%=      5-min Rain = 0
KES1 190638Z 35020KT 03/M03 A3004 RMK A01 T00291031  RH  065%=      5-min Rain = 0
KES1 190639Z 35017G23KT 03/M03 A3005 RMK A01 T00291031  RH  065%=      5-min Rain = 0
KES1 190640Z 35016KT 03/M03 A3005 RMK A01 T00291030  RH  065%=      5-min Rain = 0
KES1 190641Z 35014KT 03/M03 A3005 RMK A01 T00291030  RH  065%=      5-min Rain = 0
KES1 190642Z 35014KT 03/M03 A3005 RMK A01 T00291029  RH  066%=      5-min Rain = 0
KES1 190643Z 35014KT 03/M03 A3005 RMK A01 T00291029  RH  066%=      5-min Rain = 0
KES1 190644Z 35015KT 03/M03 A3005 RMK A01 T00291029  RH  066%=      5-min Rain = 0
KES1 190645Z 34015KT 03/M03 A3005 RMK A01 T00291029  RH  066%=      5-min Rain = 0
KES1 190646Z 34016G21KT 03/M03 A3005 RMK A01 T00291029  RH  066%=      5-min Rain = 0
KES1 190647Z 34020G25KT 03/M03 A3005 RMK A01 T00291030  RH  065%=      5-min Rain = 0
KES1 190648Z 34017KT 03/M03 A3005 RMK A01 T00291031  RH  065%=      5-min Rain = 0
KES1 190649Z 33018G24KT 03/M03 A3005 RMK A01 T00291030  RH  065%=      5-min Rain = 0
KES1 190650Z 33026G31KT 03/M03 A3005 RMK A01 T00291031  RH  064%=      5-min Rain = 0
KES1 190651Z 33023KT 03/M03 A3005 RMK A01 T00291032  RH  064%=      5-min Rain = 0
KES1 190652Z 34024G32KT 03/M03 A3005 RMK A01 T00291033  RH  064%=      5-min Rain = 0
KES1 190653Z 33021KT 03/M03 A3005 RMK A01 T00291033  RH  064%=      5-min Rain = 0
KES1 190654Z 34023G28KT 03/M03 A3005 RMK A01 T00291033  RH  064%=      5-min Rain = 0
KES1 190655Z 33020G25KT 03/M03 A3005 RMK A01 T00281034  RH  064%=      5-min Rain = 0
KES1 190656Z 33022KT 03/M03 A3005 RMK A01 T00281034  RH  064%=      5-min Rain = 0
KES1 190657Z 33021KT 03/M03 A3005 RMK A01 T00281034  RH  064%=      5-min Rain = 0
KES1 190658Z 33022KT 03/M03 A3005 RMK A01 T00281034  RH  064%=      5-min Rain = 0
KES1 190659Z 33016KT 03/M03 A3005 RMK A01 T00281034  RH  064%=      5-min Rain = 0
KES1 190700Z 34021KT 03/M03 A3006 RMK A01 T00281034  RH  064%=      5-min Rain = 0
KES1 190701Z 34017KT 03/M03 A3006 RMK A01 T00281034  RH  064%=      5-min Rain = 0
KES1 190702Z 34017KT 03/M03 A3006 RMK A01 T00281034  RH  064%=      5-min Rain = 0
KES1 190703Z 34018KT 03/M03 A3006 RMK A01 T00281034  RH  064%=      5-min Rain = 0
KES1 190704Z 35015G21KT 03/M03 A3006 RMK A01 T00281034  RH  064%=      5-min Rain = 0
KES1 190705Z 35019G24KT 03/M03 A3006 RMK A01 T00281034  RH  064%=      5-min Rain = 0
KES1 190706Z 34019KT 03/M03 A3006 RMK A01 T00281034  RH  063%=      5-min Rain = 0
KES1 190707Z 34020KT 03/M03 A3006 RMK A01 T00281034  RH  063%=      5-min Rain = 0
KES1 190708Z 34019KT 03/M03 A3006 RMK A01 T00281034  RH  063%=      5-min Rain = 0
KES1 190709Z 34017KT 03/M03 A3006 RMK A01 T00281034  RH  063%=      5-min Rain = 0
KES1 190710Z 35016KT 03/M03 A3006 RMK A01 T00281034  RH  064%=      5-min Rain = 0
KES1 190711Z 35018KT 03/M03 A3006 RMK A01 T00281034  RH  064%=      5-min Rain = 0
KES1 190712Z 34018KT 03/M03 A3006 RMK A01 T00281034  RH  064%=      5-min Rain = 0
KES1 190713Z 35016KT 03/M03 A3006 RMK A01 T00281034  RH  064%=      5-min Rain = 0
KES1 190714Z 34018KT 03/M03 A3006 RMK A01 T00281034  RH  064%=      5-min Rain = 0
KES1 190715Z 35018G23KT 03/M03 A3006 RMK A01 T00281034  RH  064%=      5-min Rain = 0
KES1 190716Z 34016KT 03/M03 A3006 RMK A01 T00281034  RH  064%=      5-min Rain = 0
KES1 190717Z 34018KT 03/M03 A3006 RMK A01 T00281034  RH  064%=      5-min Rain = 0
KES1 190718Z 33019KT 03/M03 A3006 RMK A01 T00281034  RH  064%=      5-min Rain = 0
KES1 190719Z 33019KT 03/M03 A3006 RMK A01 T00281034  RH  063%=      5-min Rain = 0
KES1 190720Z 34020KT 03/M03 A3006 RMK A01 T00291034  RH  064%=      5-min Rain = 0
KES1 190721Z 35018KT 03/M03 A3006 RMK A01 T00291034  RH  064%=      5-min Rain = 0
KES1 190722Z 34018KT 03/M03 A3006 RMK A01 T00291033  RH  064%=      5-min Rain = 0
KES1 190723Z 34016KT 03/M03 A3006 RMK A01 T00291033  RH  064%=      5-min Rain = 0
KES1 190724Z 34016KT 03/M03 A3006 RMK A01 T00291033  RH  064%=      5-min Rain = 0
KES1 190725Z 34021G26KT 03/M03 A3006 RMK A01 T00291033  RH  064%=      5-min Rain = 0
KES1 190726Z 34016KT 03/M03 A3006 RMK A01 T00291033  RH  064%=      5-min Rain = 0
KES1 190727Z 34017G23KT 03/M03 A3006 RMK A01 T00291032  RH  064%=      5-min Rain = 0
KES1 190728Z 34017G22KT 03/M03 A3006 RMK A01 T00291032  RH  064%=      5-min Rain = 0
KES1 190729Z 34018KT 03/M03 A3006 RMK A01 T00291032  RH  064%=      5-min Rain = 0
KES1 190730Z 33016G21KT 03/M03 A3006 RMK A01 T00291032  RH  064%=      5-min Rain = 0
KES1 190731Z 33018KT 03/M03 A3006 RMK A01 T00291032  RH  064%=      5-min Rain = 0
KES1 190732Z 33016KT 03/M03 A3006 RMK A01 T00291032  RH  064%=      5-min Rain = 0
KES1 190733Z 33011KT 03/M03 A3006 RMK A01 T00301031  RH  064%=      5-min Rain = 0
KES1 190734Z 33017G22KT 03/M03 A3006 RMK A01 T00301030  RH  065%=      5-min Rain = 0
KES1 190735Z 32016KT 03/M03 A3006 RMK A01 T00301031  RH  064%=      5-min Rain = 0
KES1 190736Z 32016KT 03/M03 A3006 RMK A01 T00301031  RH  064%=      5-min Rain = 0
KES1 190737Z 32018KT 03/M03 A3006 RMK A01 T00301030  RH  064%=      5-min Rain = 0
KES1 190738Z 33016G21KT 03/M03 A3006 RMK A01 T00311030  RH  064%=      5-min Rain = 0
KES1 190739Z 33019KT 03/M03 A3006 RMK A01 T00311030  RH  064%=      5-min Rain = 0
KES1 190740Z 33015KT 03/M03 A3006 RMK A01 T00311030  RH  064%=      5-min Rain = 0
KES1 190741Z 33013G18KT 03/M03 A3006 RMK A01 T00311030  RH  064%=      5-min Rain = 0
KES1 190742Z 33016KT 03/M03 A3006 RMK A01 T00311030  RH  064%=      5-min Rain = 0
KES1 190743Z 33021KT 03/M03 A3006 RMK A01 T00311030  RH  064%=      5-min Rain = 0
KES1 190744Z 33021KT 03/M03 A3006 RMK A01 T00311031  RH  064%=      5-min Rain = 0
KES1 190745Z 34021G27KT 03/M03 A3006 RMK A01 T00311031  RH  064%=      5-min Rain = 0
KES1 190746Z 33021KT 03/M03 A3006 RMK A01 T00311031  RH  064%=      5-min Rain = 0
KES1 190747Z 33018KT 03/M03 A3006 RMK A01 T00311031  RH  064%=      5-min Rain = 0
KES1 190748Z 33018KT 03/M03 A3006 RMK A01 T00311031  RH  064%=      5-min Rain = 0
KES1 190749Z 33021G26KT 03/M03 A3006 RMK A01 T00311031  RH  064%=      5-min Rain = 0
KES1 190750Z 33020KT 03/M03 A3006 RMK A01 T00311032  RH  063%=      5-min Rain = 0
KES1 190751Z 33021KT 03/M03 A3006 RMK A01 T00311031  RH  064%=      5-min Rain = 0
KES1 190752Z 33018KT 03/M03 A3006 RMK A01 T00311031  RH  064%=      5-min Rain = 0
KES1 190753Z 34016KT 03/M03 A3006 RMK A01 T00311031  RH  064%=      5-min Rain = 0
KES1 190754Z 33017KT 03/M03 A3006 RMK A01 T00311031  RH  064%=      5-min Rain = 0
KES1 190755Z 33021KT 03/M03 A3006 RMK A01 T00311031  RH  064%=      5-min Rain = 0
KES1 190756Z 34020KT 03/M03 A3007 RMK A01 T00311032  RH  064%=      5-min Rain = 0
KES1 190757Z 33017KT 03/M03 A3007 RMK A01 T00311031  RH  064%=      5-min Rain = 0
KES1 190758Z 34018KT 03/M03 A3007 RMK A01 T00311031  RH  064%=      5-min Rain = 0
KES1 190759Z 33017KT 03/M03 A3007 RMK A01 T00311031  RH  064%=      5-min Rain = 0
KES1 190800Z 33019KT 03/M03 A3007 RMK A01 T00311031  RH  064%=      5-min Rain = 0
KES1 190801Z 33020G25KT 03/M03 A3007 RMK A01 T00311032  RH  064%=      5-min Rain = 0
KES1 190802Z 33024G29KT 03/M03 A3007 RMK A01 T00311031  RH  064%=      5-min Rain = 0
KES1 190803Z 33023KT 03/M03 A3007 RMK A01 T00311032  RH  063%=      5-min Rain = 0
KES1 190804Z 33022G28KT 03/M03 A3007 RMK A01 T00311032  RH  063%=      5-min Rain = 0
KES1 190805Z 33022G27KT 03/M03 A3007 RMK A01 T00321031  RH  063%=      5-min Rain = 0
KES1 190806Z 34019G24KT 03/M03 A3007 RMK A01 T00311031  RH  063%=      5-min Rain = 0
KES1 190807Z 33017KT 03/M03 A3007 RMK A01 T00311031  RH  064%=      5-min Rain = 0
KES1 190808Z 33016KT 03/M03 A3007 RMK A01 T00311030  RH  064%=      5-min Rain = 0
KES1 190809Z 33016KT 03/M03 A3007 RMK A01 T00311030  RH  064%=      5-min Rain = 0
KES1 190810Z 33019KT 03/M03 A3007 RMK A01 T00311030  RH  064%=      5-min Rain = 0
KES1 190811Z 33023KT 03/M03 A3007 RMK A01 T00311029  RH  064%=      5-min Rain = 0
KES1 190812Z 33022KT 03/M03 A3007 RMK A01 T00311029  RH  065%=      5-min Rain = 0
KES1 190813Z 33023G28KT 03/M03 A3007 RMK A01 T00311029  RH  065%=      5-min Rain = 0
KES1 190814Z 33024KT 03/M03 A3007 RMK A01 T00311029  RH  065%=      5-min Rain = 0
KES1 190815Z 33022KT 03/M03 A3007 RMK A01 T00321028  RH  065%=      5-min Rain = 0
KES1 190816Z 33020G25KT 03/M03 A3007 RMK A01 T00311028  RH  065%=      5-min Rain = 0
KES1 190817Z 33020KT 03/M03 A3007 RMK A01 T00311028  RH  065%=      5-min Rain = 0
KES1 190818Z 33023KT 03/M03 A3007 RMK A01 T00311028  RH  065%=      5-min Rain = 0
KES1 190819Z 33021G26KT 03/M03 A3008 RMK A01 T00311028  RH  065%=      5-min Rain = 0
KES1 190820Z 34022KT 03/M03 A3007 RMK A01 T00311027  RH  065%=      5-min Rain = 0
KES1 190821Z 34025KT 03/M03 A3007 RMK A01 T00321027  RH  065%=      5-min Rain = 0
KES1 190822Z 34021KT 03/M03 A3007 RMK A01 T00311027  RH  065%=      5-min Rain = 0
KES1 190823Z 34020KT 03/M03 A3008 RMK A01 T00311027  RH  065%=      5-min Rain = 0
KES1 190824Z 33020G26KT 03/M03 A3008 RMK A01 T00321027  RH  066%=      5-min Rain = 0
KES1 190825Z 33015KT 03/M03 A3008 RMK A01 T00311026  RH  066%=      5-min Rain = 0
KES1 190826Z 33019KT 03/M03 A3008 RMK A01 T00311026  RH  066%=      5-min Rain = 0
KES1 190827Z 33017KT 03/M03 A3008 RMK A01 T00321026  RH  066%=      5-min Rain = 0
KES1 190828Z 33020KT 03/M03 A3008 RMK A01 T00321026  RH  066%=      5-min Rain = 0
KES1 190829Z 34016KT 03/M03 A3008 RMK A01 T00311026  RH  066%=      5-min Rain = 0
KES1 190830Z 33020KT 03/M03 A3008 RMK A01 T00311026  RH  066%=      5-min Rain = 0
KES1 190831Z 34021G26KT 03/M03 A3008 RMK A01 T00311027  RH  066%=      5-min Rain = 0
KES1 190832Z 34023KT 03/M03 A3008 RMK A01 T00321027  RH  065%=      5-min Rain = 0
KES1 190833Z 34021KT 03/M03 A3008 RMK A01 T00311027  RH  065%=      5-min Rain = 0
KES1 190834Z 33021KT 03/M03 A3008 RMK A01 T00321027  RH  065%=      5-min Rain = 0
KES1 190835Z 33022KT 03/M03 A3008 RMK A01 T00321027  RH  065%=      5-min Rain = 0
KES1 190836Z 34018G23KT 03/M03 A3008 RMK A01 T00321028  RH  065%=      5-min Rain = 0
KES1 190837Z 33019KT 03/M03 A3008 RMK A01 T00321028  RH  065%=      5-min Rain = 0
KES1 190838Z 33018KT 03/M03 A3008 RMK A01 T00321028  RH  065%=      5-min Rain = 0
KES1 190839Z 34023KT 03/M03 A3008 RMK A01 T00321029  RH  064%=      5-min Rain = 0
KES1 190840Z 34020KT 03/M03 A3008 RMK A01 T00321031  RH  063%=      5-min Rain = 0
KES1 190841Z 34018KT 03/M03 A3008 RMK A01 T00321031  RH  063%=      5-min Rain = 0
KES1 190842Z 34018G23KT 03/M03 A3008 RMK A01 T00321032  RH  063%=      5-min Rain = 0
KES1 190843Z 34026G31KT 03/M04 A3009 RMK A01 T00311035  RH  062%=      5-min Rain = 0
KES1 190844Z 33025KT 03/M04 A3009 RMK A01 T00311038  RH  060%=      5-min Rain = 0
KES1 190845Z 34021G27KT 03/M04 A3009 RMK A01 T00311039  RH  060%=      5-min Rain = 0
KES1 190846Z 34021KT 03/M04 A3009 RMK A01 T00311039  RH  060%=      5-min Rain = 0
KES1 190847Z 34028G34KT 03/M04 A3009 RMK A01 T00301040  RH  060%=      5-min Rain = 0
KES1 190848Z 33026G31KT 03/M04 A3009 RMK A01 T00311041  RH  059%=      5-min Rain = 0
KES1 190849Z 32026G31KT 03/M04 A3009 RMK A01 T00301042  RH  059%=      5-min Rain = 0
KES1 190850Z 33026KT 03/M04 A3009 RMK A01 T00311043  RH  058%=      5-min Rain = 0
KES1 190851Z 33026G32KT 03/M04 A3009 RMK A01 T00311043  RH  058%=      5-min Rain = 0
KES1 190852Z 34024G30KT 03/M04 A3009 RMK A01 T00311043  RH  058%=      5-min Rain = 0
KES1 190853Z 34031G36KT 03/M05 A3009 RMK A01 T00301045  RH  058%=      5-min Rain = 0
KES1 190854Z 34026G31KT 03/M05 A3009 RMK A01 T00291047  RH  057%=      5-min Rain = 0
KES1 190855Z 35021G28KT 03/M05 A3009 RMK A01 T00291047  RH  057%=      5-min Rain = 0
KES1 190856Z 35027KT 03/M05 A3009 RMK A01 T00281047  RH  058%=      5-min Rain = 0
KES1 190857Z 35028KT 03/M05 A3009 RMK A01 T00281047  RH  058%=      5-min Rain = 0
KES1 190858Z 35022KT 03/M05 A3009 RMK A01 T00281047  RH  058%=      5-min Rain = 0
KES1 190859Z 35019G25KT 03/M05 A3009 RMK A01 T00271046  RH  058%=      5-min Rain = 0
KES1 190900Z 35021KT 03/M05 A301 RMK A01 T00271046  RH  059%=      5-min Rain = 0
KES1 190901Z 34021KT 03/M05 A301 RMK A01 T00271046  RH  059%=      5-min Rain = 0
KES1 190902Z 34019KT 03/M05 A3009 RMK A01 T00271045  RH  059%=      5-min Rain = 0
KES1 190903Z 34018G23KT 03/M04 A301 RMK A01 T00271044  RH  059%=      5-min Rain = 0
KES1 190904Z 34016KT 03/M04 A301 RMK A01 T00271044  RH  060%=      5-min Rain = 0
KES1 190905Z 34019KT 03/M04 A301 RMK A01 T00271043  RH  060%=      5-min Rain = 0
KES1 190906Z 34016G21KT 03/M04 A301 RMK A01 T00271043  RH  060%=      5-min Rain = 0
KES1 190907Z 34019KT 03/M04 A301 RMK A01 T00271043  RH  060%=      5-min Rain = 0
KES1 190908Z 33018KT 03/M04 A301 RMK A01 T00271042  RH  060%=      5-min Rain = 0
KES1 190909Z 33016KT 03/M04 A3011 RMK A01 T00271041  RH  061%=      5-min Rain = 0
KES1 190910Z 33021KT 03/M04 A3011 RMK A01 T00271041  RH  061%=      5-min Rain = 0
KES1 190911Z 32026G31KT 03/M04 A3011 RMK A01 T00271041  RH  061%=      5-min Rain = 0
KES1 190912Z 32027G32KT 03/M04 A3011 RMK A01 T00261043  RH  060%=      5-min Rain = 0
KES1 190913Z 33027G32KT 03/M05 A3011 RMK A01 T00251045  RH  060%=      5-min Rain = 0
KES1 190914Z 32024KT 03/M05 A3011 RMK A01 T00251046  RH  060%=      5-min Rain = 0
KES1 190915Z 32027KT 02/M05 A3011 RMK A01 T00241046  RH  060%=      5-min Rain = 0
KES1 190916Z 33024KT 02/M05 A3011 RMK A01 T00231048  RH  059%=      5-min Rain = 0
KES1 190917Z 33021KT 02/M05 A3011 RMK A01 T00231048  RH  060%=      5-min Rain = 0
KES1 190918Z 33026G33KT 02/M05 A3011 RMK A01 T00221049  RH  059%=      5-min Rain = 0
KES1 190919Z 33029G34KT 02/M05 A3012 RMK A01 T00221050  RH  059%=      5-min Rain = 0
KES1 190920Z 33027G35KT 02/M05 A3012 RMK A01 T00211051  RH  059%=      5-min Rain = 0
KES1 190921Z 33022KT 02/M05 A3012 RMK A01 T00211050  RH  059%=      5-min Rain = 0
KES1 190922Z 34023G30KT 02/M05 A3012 RMK A01 T00211050  RH  059%=      5-min Rain = 0
KES1 190923Z 33024KT 02/M05 A3012 RMK A01 T00211050  RH  059%=      5-min Rain = 0
KES1 190924Z 34025G30KT 02/M05 A3012 RMK A01 T00211051  RH  059%=      5-min Rain = 0
KES1 190925Z 33020KT 02/M05 A3012 RMK A01 T00201051  RH  059%=      5-min Rain = 0
KES1 190926Z 33023KT 02/M05 A3012 RMK A01 T00201051  RH  059%=      5-min Rain = 0
KES1 190927Z 33025KT 02/M05 A3012 RMK A01 T00201052  RH  059%=      5-min Rain = 0
KES1 190928Z 33025G31KT 02/M05 A3012 RMK A01 T00191053  RH  059%=      5-min Rain = 0
KES1 190929Z 33024G30KT 02/M05 A3012 RMK A01 T00191053  RH  059%=      5-min Rain = 0
KES1 190930Z 33027G35KT 02/M05 A3012 RMK A01 T00181053  RH  059%=      5-min Rain = 0
KES1 190931Z 34023G28KT 02/M05 A3012 RMK A01 T00181054  RH  059%=      5-min Rain = 0
KES1 190932Z 33025G32KT 02/M05 A3012 RMK A01 T00171054  RH  059%=      5-min Rain = 0
KES1 190933Z 33025G31KT 02/M06 A3012 RMK A01 T00171055  RH  059%=      5-min Rain = 0
KES1 190934Z 34019KT 02/M06 A3012 RMK A01 T00171055  RH  059%=      5-min Rain = 0
KES1 190935Z 34023KT 02/M06 A3012 RMK A01 T00161055  RH  059%=      5-min Rain = 0
KES1 190936Z 34027G35KT 02/M06 A3012 RMK A01 T00161055  RH  059%=      5-min Rain = 0
KES1 190937Z 34028G36KT 02/M06 A3013 RMK A01 T00151056  RH  059%=      5-min Rain = 0
KES1 190938Z 33031KT 02/M06 A3013 RMK A01 T00151056  RH  059%=      5-min Rain = 0
KES1 190939Z 34024KT 02/M06 A3013 RMK A01 T00151057  RH  059%=      5-min Rain = 0
KES1 190940Z 34026G33KT 01/M06 A3013 RMK A01 T00141056  RH  059%=      5-min Rain = 0
KES1 190941Z 34028KT 01/M06 A3013 RMK A01 T00141056  RH  059%=      5-min Rain = 0
KES1 190942Z 34024KT 01/M06 A3013 RMK A01 T00141056  RH  060%=      5-min Rain = 0
KES1 190943Z 34025G30KT 01/M06 A3013 RMK A01 T00141056  RH  060%=      5-min Rain = 0
KES1 190944Z 33024KT 01/M06 A3013 RMK A01 T00131056  RH  060%=      5-min Rain = 0
KES1 190945Z 33024KT 01/M06 A3013 RMK A01 T00141056  RH  060%=      5-min Rain = 0
KES1 190946Z 34024G29KT 01/M06 A3013 RMK A01 T00141056  RH  060%=      5-min Rain = 0
KES1 190947Z 34021KT 01/M06 A3013 RMK A01 T00131056  RH  060%=      5-min Rain = 0
KES1 190948Z 33022G29KT 01/M06 A3013 RMK A01 T00131056  RH  060%=      5-min Rain = 0
KES1 190949Z 34020G26KT 01/M06 A3013 RMK A01 T00131056  RH  060%=      5-min Rain = 0
KES1 190950Z 33028KT 01/M06 A3013 RMK A01 T00121056  RH  060%=      5-min Rain = 0
KES1 190951Z 34027KT 01/M06 A3013 RMK A01 T00121057  RH  060%=      5-min Rain = 0
KES1 190952Z 34025KT 01/M06 A3013 RMK A01 T00121056  RH  060%=      5-min Rain = 0
KES1 190953Z 34020KT 01/M06 A3013 RMK A01 T00121056  RH  061%=      5-min Rain = 0
KES1 190954Z 35023G28KT 01/M06 A3014 RMK A01 T00121056  RH  061%=      5-min Rain = 0
KES1 190955Z 34025KT 01/M06 A3014 RMK A01 T00111056  RH  061%=      5-min Rain = 0
KES1 190956Z 34023G29KT 01/M06 A3014 RMK A01 T00111056  RH  061%=      5-min Rain = 0
KES1 190957Z 34024G30KT 01/M06 A3014 RMK A01 T00111056  RH  061%=      5-min Rain = 0
KES1 190958Z 34019KT 01/M06 A3013 RMK A01 T00111056  RH  061%=      5-min Rain = 0
KES1 190959Z 34016KT 01/M06 A3013 RMK A01 T00111055  RH  061%=      5-min Rain = 0
KES1 191000Z 34019G28KT 01/M06 A3014 RMK A01 T00101055  RH  062%=      5-min Rain = 0
KES1 191001Z 34021G26KT 01/M06 A3014 RMK A01 T00111055  RH  062%=      5-min Rain = 0
KES1 191002Z 34022KT 01/M06 A3014 RMK A01 T00111055  RH  062%=      5-min Rain = 0
KES1 191003Z 34020KT 01/M06 A3014 RMK A01 T00101055  RH  062%=      5-min Rain = 0
KES1 191004Z 35019KT 01/M06 A3014 RMK A01 T00101055  RH  062%=      5-min Rain = 0
KES1 191005Z 34021KT 01/M06 A3014 RMK A01 T00101055  RH  062%=      5-min Rain = 0
KES1 191006Z 34021KT 01/M06 A3014 RMK A01 T00101055  RH  062%=      5-min Rain = 0
KES1 191007Z 34019G25KT 01/M06 A3014 RMK A01 T00101055  RH  062%=      5-min Rain = 0
KES1 191008Z 34018KT 01/M06 A3014 RMK A01 T00111055  RH  062%=      5-min Rain = 0
KES1 191009Z 34019KT 01/M06 A3014 RMK A01 T00101055  RH  062%=      5-min Rain = 0
KES1 191010Z 34018KT 01/M06 A3014 RMK A01 T00101055  RH  062%=      5-min Rain = 0
KES1 191011Z 34020KT 01/M05 A3014 RMK A01 T00101054  RH  062%=      5-min Rain = 0
KES1 191012Z 34021G26KT 01/M05 A3014 RMK A01 T00111054  RH  062%=      5-min Rain = 0
KES1 191013Z 34026KT 01/M05 A3014 RMK A01 T00111054  RH  062%=      5-min Rain = 0
KES1 191014Z 34019KT 01/M05 A3014 RMK A01 T00111054  RH  062%=      5-min Rain = 0
KES1 191015Z 34018KT 01/M05 A3014 RMK A01 T00111054  RH  062%=      5-min Rain = 0
KES1 191016Z 34019KT 01/M05 A3014 RMK A01 T00111054  RH  062%=      5-min Rain = 0
KES1 191017Z 34018G23KT 01/M05 A3014 RMK A01 T00111054  RH  062%=      5-min Rain = 0
KES1 191018Z 34018KT 01/M05 A3014 RMK A01 T00111054  RH  062%=      5-min Rain = 0
KES1 191019Z 34021KT 01/M05 A3015 RMK A01 T00111054  RH  062%=      5-min Rain = 0
KES1 191020Z 34024G31KT 01/M05 A3014 RMK A01 T00111054  RH  062%=      5-min Rain = 0
KES1 191021Z 35021KT 01/M06 A3015 RMK A01 T00111055  RH  061%=      5-min Rain = 0
KES1 191022Z 35021KT 01/M05 A3014 RMK A01 T00121054  RH  061%=      5-min Rain = 0
KES1 191023Z 35019KT 01/M05 A3014 RMK A01 T00111054  RH  062%=      5-min Rain = 0
KES1 191024Z 34021G27KT 01/M06 A3015 RMK A01 T00111055  RH  062%=      5-min Rain = 0
KES1 191025Z 34022KT 01/M05 A3015 RMK A01 T00111054  RH  062%=      5-min Rain = 0
KES1 191026Z 34019G25KT 01/M06 A3015 RMK A01 T00101055  RH  062%=      5-min Rain = 0
KES1 191027Z 35021KT 01/M06 A3015 RMK A01 T00101055  RH  062%=      5-min Rain = 0
KES1 191028Z 35021G31KT 01/M06 A3015 RMK A01 T00101055  RH  062%=      5-min Rain = 0
KES1 191029Z 35026KT 01/M06 A3015 RMK A01 T00101056  RH  062%=      5-min Rain = 0
KES1 191030Z 34021G27KT 01/M06 A3015 RMK A01 T00101056  RH  062%=      5-min Rain = 0
KES1 191031Z 34018G25KT 01/M06 A3015 RMK A01 T00091055  RH  062%=      5-min Rain = 0
KES1 191032Z 35022KT 01/M06 A3015 RMK A01 T00101055  RH  062%=      5-min Rain = 0
KES1 191033Z 34022G27KT 01/M06 A3015 RMK A01 T00091055  RH  062%=      5-min Rain = 0
KES1 191034Z 34023KT 01/M06 A3015 RMK A01 T00091056  RH  062%=      5-min Rain = 0
KES1 191035Z 35019G25KT 01/M06 A3015 RMK A01 T00091056  RH  062%=      5-min Rain = 0
KES1 191036Z 34021G26KT 01/M06 A3015 RMK A01 T00091056  RH  062%=      5-min Rain = 0
KES1 191037Z 34023KT 01/M06 A3015 RMK A01 T00081056  RH  062%=      5-min Rain = 0
KES1 191038Z 34019KT 01/M06 A3015 RMK A01 T00091056  RH  062%=      5-min Rain = 0
KES1 191039Z 34018G25KT 01/M06 A3015 RMK A01 T00091056  RH  062%=      5-min Rain = 0
KES1 191040Z 34022G27KT 01/M06 A3015 RMK A01 T00091056  RH  062%=      5-min Rain = 0
KES1 191041Z 34021KT 01/M06 A3015 RMK A01 T00081056  RH  062%=      5-min Rain = 0
KES1 191042Z 34019G25KT 01/M06 A3015 RMK A01 T00081057  RH  062%=      5-min Rain = 0
KES1 191043Z 34020KT 01/M06 A3015 RMK A01 T00081056  RH  062%=      5-min Rain = 0
KES1 191044Z 34022G27KT 01/M06 A3015 RMK A01 T00081057  RH  062%=      5-min Rain = 0
KES1 191045Z 35020KT 01/M06 A3015 RMK A01 T00071057  RH  062%=      5-min Rain = 0
KES1 191046Z 34018KT 01/M06 A3015 RMK A01 T00071057  RH  062%=      5-min Rain = 0
KES1 191047Z 34019KT 01/M06 A3015 RMK A01 T00071057  RH  062%=      5-min Rain = 0
KES1 191048Z 34022KT 01/M06 A3015 RMK A01 T00071057  RH  063%=      5-min Rain = 0
KES1 191049Z 34020KT 01/M06 A3016 RMK A01 T00071056  RH  063%=      5-min Rain = 0
KES1 191050Z 34017G22KT 01/M06 A3015 RMK A01 T00071056  RH  063%=      5-min Rain = 0
KES1 191051Z 34015KT 01/M06 A3015 RMK A01 T00061057  RH  063%=      5-min Rain = 0
KES1 191052Z 34014KT 01/M06 A3016 RMK A01 T00061056  RH  063%=      5-min Rain = 0
KES1 191053Z 34014KT 01/M06 A3016 RMK A01 T00061056  RH  063%=      5-min Rain = 0
KES1 191054Z 34012KT 01/M06 A3016 RMK A01 T00061056  RH  063%=      5-min Rain = 0
KES1 191055Z 33013KT 01/M06 A3016 RMK A01 T00051056  RH  064%=      5-min Rain = 0
KES1 191056Z 33013KT 01/M06 A3016 RMK A01 T00051055  RH  064%=      5-min Rain = 0
KES1 191057Z 33016G23KT 01/M06 A3016 RMK A01 T00051055  RH  064%=      5-min Rain = 0
KES1 191058Z 33019KT 01/M06 A3016 RMK A01 T00051056  RH  064%=      5-min Rain = 0
KES1 191059Z 32024KT 01/M06 A3016 RMK A01 T00061056  RH  063%=      5-min Rain = 0
KES1 191100Z 33020KT 01/M06 A3016 RMK A01 T00061056  RH  063%=      5-min Rain = 0
KES1 191101Z 33020KT 01/M06 A3016 RMK A01 T00061056  RH  063%=      5-min Rain = 0
KES1 191102Z 32017KT 01/M06 A3016 RMK A01 T00061056  RH  063%=      5-min Rain = 0
KES1 191103Z 33014KT 01/M06 A3016 RMK A01 T00061056  RH  063%=      5-min Rain = 0
KES1 191104Z 33020KT 01/M06 A3016 RMK A01 T00061055  RH  063%=      5-min Rain = 0
KES1 191105Z 33017KT 01/M06 A3016 RMK A01 T00061055  RH  063%=      5-min Rain = 0
KES1 191106Z 33016KT 01/M06 A3016 RMK A01 T00061056  RH  063%=      5-min Rain = 0
KES1 191107Z 33019KT 01/M06 A3016 RMK A01 T00061055  RH  064%=      5-min Rain = 0
KES1 191108Z 33017KT 01/M06 A3016 RMK A01 T00061055  RH  063%=      5-min Rain = 0
KES1 191109Z 33019KT 01/M06 A3016 RMK A01 T00051056  RH  063%=      5-min Rain = 0
KES1 191110Z 32016KT 01/M06 A3016 RMK A01 T00051056  RH  063%=      5-min Rain = 0
KES1 191111Z 32015KT 01/M06 A3016 RMK A01 T00051056  RH  064%=      5-min Rain = 0
KES1 191112Z 32019KT 01/M06 A3017 RMK A01 T00051056  RH  064%=      5-min Rain = 0
KES1 191113Z 32018KT 00/M06 A3017 RMK A01 T00041056  RH  064%=      5-min Rain = 0
KES1 191114Z 33018KT 00/M06 A3017 RMK A01 T00041057  RH  064%=      5-min Rain = 0
KES1 191115Z 33022G27KT 00/M06 A3017 RMK A01 T00041057  RH  064%=      5-min Rain = 0
KES1 191116Z 33020G25KT 00/M06 A3017 RMK A01 T00041057  RH  063%=      5-min Rain = 0
KES1 191117Z 33020KT 00/M06 A3017 RMK A01 T00041058  RH  063%=      5-min Rain = 0
KES1 191118Z 33023KT 00/M06 A3017 RMK A01 T00031058  RH  063%=      5-min Rain = 0
KES1 191119Z 33023KT 00/M06 A3017 RMK A01 T00031059  RH  063%=      5-min Rain = 0
KES1 191120Z 33021G28KT 00/M06 A3017 RMK A01 T00031060  RH  062%=      5-min Rain = 0
KES1 191121Z 34020KT 00/M06 A3017 RMK A01 T00031062  RH  062%=      5-min Rain = 0
KES1 191122Z 33022KT 00/M06 A3017 RMK A01 T00021062  RH  062%=      5-min Rain = 0
KES1 191123Z 33020G25KT 00/M06 A3017 RMK A01 T00021063  RH  062%=      5-min Rain = 0
KES1 191124Z 33021KT 00/M06 A3017 RMK A01 T00021063  RH  062%=      5-min Rain = 0
KES1 191125Z 33018KT 00/M06 A3017 RMK A01 T00021063  RH  062%=      5-min Rain = 0
KES1 191126Z 33017KT 00/M06 A3017 RMK A01 T00011062  RH  062%=      5-min Rain = 0
KES1 191127Z 34014KT 00/M06 A3017 RMK A01 T00011062  RH  062%=      5-min Rain = 0
KES1 191128Z 33015KT 00/M06 A3017 RMK A01 T00011062  RH  063%=      5-min Rain = 0
KES1 191129Z 33016KT 00/06 A3017 RMK A01 T00000-62  RH  063%=      5-min Rain = 0
KES1 191130Z 33017KT 00/06 A3017 RMK A01 T00000-62  RH  063%=      5-min Rain = 0
KES1 191131Z 33017KT 00/M06 A3017 RMK A01 T00011061  RH  063%=      5-min Rain = 0
KES1 191132Z 33015G20KT 00/06 A3017 RMK A01 T00000-62  RH  063%=      5-min Rain = 0
KES1 191133Z 33018KT 00/06 A3017 RMK A01 T00000-62  RH  063%=      5-min Rain = 0
KES1 191134Z 33013KT 00/06 A3017 RMK A01 T00000-62  RH  063%=      5-min Rain = 0
KES1 191135Z 33013KT 00/06 A3017 RMK A01 T00-00-62  RH  063%=      5-min Rain = 0
KES1 191136Z 33015G20KT 00/06 A3018 RMK A01 T00-00-61  RH  064%=      5-min Rain = 0
KES1 191137Z 33016KT 00/06 A3018 RMK A01 T00-00-61  RH  064%=      5-min Rain = 0
KES1 191138Z 33015KT M00/M06 A3018 RMK A01 T10011061  RH  064%=      5-min Rain = 0
KES1 191139Z 33015KT M00/M06 A3018 RMK A01 T10011061  RH  064%=      5-min Rain = 0
KES1 191140Z 33012KT 00/06 A3018 RMK A01 T00-00-61  RH  064%=      5-min Rain = 0
KES1 191141Z 33015KT M00/M06 A3018 RMK A01 T10011061  RH  064%=      5-min Rain = 0
KES1 191142Z 33013KT M00/M06 A3018 RMK A01 T10011061  RH  064%=      5-min Rain = 0
KES1 191143Z 33013KT M00/M06 A3018 RMK A01 T10011061  RH  064%=      5-min Rain = 0
KES1 191144Z 33011KT M00/M06 A3018 RMK A01 T10011061  RH  064%=      5-min Rain = 0
KES1 191145Z 33011KT M00/M06 A3018 RMK A01 T10011060  RH  064%=      5-min Rain = 0
KES1 191146Z 33014G19KT M00/M06 A3018 RMK A01 T10011060  RH  065%=      5-min Rain = 0
KES1 191147Z 32014KT M00/M06 A3018 RMK A01 T10011060  RH  064%=      5-min Rain = 0
KES1 191148Z 32014KT M00/M06 A3018 RMK A01 T10011060  RH  064%=      5-min Rain = 0
KES1 191149Z 33011KT M00/M06 A3018 RMK A01 T10011060  RH  064%=      5-min Rain = 0
KES1 191150Z 32011KT M00/M06 A3018 RMK A01 T10011060  RH  065%=      5-min Rain = 0
KES1 191151Z 32014KT 00/06 A3018 RMK A01 T00-00-59  RH  065%=      5-min Rain = 0
KES1 191152Z 32018KT M00/M06 A3018 RMK A01 T10011060  RH  064%=      5-min Rain = 0
KES1 191153Z 33013KT M00/M06 A3018 RMK A01 T10011061  RH  064%=      5-min Rain = 0
KES1 191154Z 33011KT 00/06 A3018 RMK A01 T00-00-60  RH  064%=      5-min Rain = 0
KES1 191155Z 32015KT M00/M06 A3018 RMK A01 T10011060  RH  064%=      5-min Rain = 0
KES1 191156Z 33017KT M00/M06 A3018 RMK A01 T10011061  RH  064%=      5-min Rain = 0
KES1 191157Z 33019KT M00/M06 A3018 RMK A01 T10011062  RH  063%=      5-min Rain = 0
KES1 191158Z 33015KT M00/M06 A3018 RMK A01 T10011063  RH  063%=      5-min Rain = 0
KES1 191159Z 33018KT M00/M06 A3018 RMK A01 T10011062  RH  063%=      5-min Rain = 0
KES1 191200Z 32020KT M00/M06 A3018 RMK A01 T10011063  RH  063%=      5-min Rain = 0
KES1 191201Z 33017KT M00/M06 A3018 RMK A01 T10011063  RH  063%=      5-min Rain = 0
KES1 191202Z 32018KT 00/06 A3019 RMK A01 T00-00-63  RH  063%=      5-min Rain = 0
KES1 191203Z 32017KT M00/M06 A3019 RMK A01 T10011063  RH  063%=      5-min Rain = 0
KES1 191204Z 33016KT M00/M06 A3019 RMK A01 T10011064  RH  063%=      5-min Rain = 0
KES1 191205Z 33018KT M00/M06 A3019 RMK A01 T10011064  RH  063%=      5-min Rain = 0
KES1 191206Z 33018G24KT M00/M06 A3019 RMK A01 T10011064  RH  063%=      5-min Rain = 0
KES1 191207Z 33020KT M00/M06 A3019 RMK A01 T10011064  RH  063%=      5-min Rain = 0
KES1 191208Z 34016KT M00/M06 A3019 RMK A01 T10011064  RH  063%=      5-min Rain = 0
KES1 191209Z 34015KT M00/M06 A3019 RMK A01 T10011064  RH  063%=      5-min Rain = 0
KES1 191210Z 34016KT M00/M06 A3019 RMK A01 T10011064  RH  063%=      5-min Rain = 0
KES1 191211Z 34017KT M00/M06 A3019 RMK A01 T10021064  RH  063%=      5-min Rain = 0
KES1 191212Z 33016KT M00/M06 A3019 RMK A01 T10021064  RH  063%=      5-min Rain = 0
KES1 191213Z 33017KT M00/M06 A3019 RMK A01 T10021064  RH  063%=      5-min Rain = 0
KES1 191214Z 34016G21KT M00/M06 A302 RMK A01 T10011064  RH  063%=      5-min Rain = 0
KES1 191215Z 34011KT M00/M06 A302 RMK A01 T10021064  RH  063%=      5-min Rain = 0
KES1 191216Z 33013KT M00/M06 A302 RMK A01 T10021064  RH  063%=      5-min Rain = 0
KES1 191217Z 33015KT M00/M06 A302 RMK A01 T10021064  RH  063%=      5-min Rain = 0
KES1 191218Z 33016KT M00/M06 A302 RMK A01 T10021064  RH  063%=      5-min Rain = 0
KES1 191219Z 33015KT M00/M06 A302 RMK A01 T10021064  RH  063%=      5-min Rain = 0
KES1 191220Z 34018KT M00/M06 A302 RMK A01 T10021064  RH  063%=      5-min Rain = 0
KES1 191221Z 33015G20KT M00/M06 A302 RMK A01 T10021064  RH  063%=      5-min Rain = 0
KES1 191222Z 33016KT M00/M06 A302 RMK A01 T10021064  RH  063%=      5-min Rain = 0
KES1 191223Z 32014KT M00/M06 A302 RMK A01 T10021064  RH  063%=      5-min Rain = 0
KES1 191224Z 33014G19KT M00/M06 A302 RMK A01 T10021064  RH  063%=      5-min Rain = 0
KES1 191225Z 33017KT M00/M06 A302 RMK A01 T10021064  RH  063%=      5-min Rain = 0
KES1 191226Z 33018KT M00/M06 A3021 RMK A01 T10021064  RH  063%=      5-min Rain = 0
KES1 191227Z 33018KT M00/M06 A3021 RMK A01 T10021064  RH  063%=      5-min Rain = 0
KES1 191228Z 32017KT M00/M06 A3021 RMK A01 T10011064  RH  063%=      5-min Rain = 0
KES1 191229Z 33018KT M00/M06 A3021 RMK A01 T10011064  RH  062%=      5-min Rain = 0
KES1 191230Z 33015KT M00/M06 A3021 RMK A01 T10011064  RH  062%=      5-min Rain = 0
KES1 191231Z 32018G23KT M00/M06 A3021 RMK A01 T10011064  RH  063%=      5-min Rain = 0
KES1 191232Z 32018KT M00/M06 A3021 RMK A01 T10011064  RH  062%=      5-min Rain = 0
KES1 191233Z 33016G21KT M00/M07 A3021 RMK A01 T10011065  RH  062%=      5-min Rain = 0
KES1 191234Z 33017G24KT M00/M06 A3021 RMK A01 T10011064  RH  062%=      5-min Rain = 0
KES1 191235Z 32017KT M00/M06 A3021 RMK A01 T10011064  RH  062%=      5-min Rain = 0
KES1 191236Z 33016G21KT M00/M06 A3021 RMK A01 T10011064  RH  062%=      5-min Rain = 0
KES1 191237Z 33016KT M00/M06 A3021 RMK A01 T10011064  RH  063%=      5-min Rain = 0
KES1 191238Z 33018KT M00/M06 A3021 RMK A01 T10011064  RH  063%=      5-min Rain = 0
KES1 191239Z 33014KT M00/M06 A3021 RMK A01 T10011064  RH  062%=      5-min Rain = 0
KES1 191240Z 33015G21KT M00/M06 A3021 RMK A01 T10011064  RH  063%=      5-min Rain = 0
KES1 191241Z 33018KT M00/M06 A3021 RMK A01 T10021064  RH  063%=      5-min Rain = 0
KES1 191242Z 33018G23KT M00/M06 A3021 RMK A01 T10011064  RH  063%=      5-min Rain = 0
KES1 191243Z 34017G22KT M00/M06 A3021 RMK A01 T10021064  RH  063%=      5-min Rain = 0
KES1 191244Z 33018KT M00/M06 A3021 RMK A01 T10011064  RH  063%=      5-min Rain = 0
KES1 191245Z 33017KT M00/M06 A3021 RMK A01 T10021064  RH  063%=      5-min Rain = 0
KES1 191246Z 33016KT M00/M06 A3022 RMK A01 T10021064  RH  063%=      5-min Rain = 0
KES1 191247Z 33015KT M00/M06 A3022 RMK A01 T10011063  RH  063%=      5-min Rain = 0
KES1 191248Z 33015KT M00/M06 A3022 RMK A01 T10021063  RH  063%=      5-min Rain = 0
KES1 191249Z 33016G23KT M00/M06 A3022 RMK A01 T10021063  RH  063%=      5-min Rain = 0
KES1 191250Z 33019KT M00/M06 A3022 RMK A01 T10021063  RH  063%=      5-min Rain = 0
KES1 191251Z 33016KT M00/M06 A3022 RMK A01 T10021064  RH  063%=      5-min Rain = 0
KES1 191252Z 33017KT M00/M06 A3022 RMK A01 T10021064  RH  063%=      5-min Rain = 0
KES1 191253Z 33017KT M00/M06 A3022 RMK A01 T10021063  RH  063%=      5-min Rain = 0
KES1 191254Z 33015KT M00/M06 A3022 RMK A01 T10021063  RH  063%=      5-min Rain = 0
KES1 191255Z 33015KT M00/M06 A3022 RMK A01 T10021063  RH  063%=      5-min Rain = 0
KES1 191256Z 33017G22KT M00/M06 A3022 RMK A01 T10021063  RH  063%=      5-min Rain = 0
KES1 191257Z 33019KT M00/M06 A3022 RMK A01 T10021063  RH  063%=      5-min Rain = 0
KES1 191258Z 33019KT M00/M06 A3022 RMK A01 T10021063  RH  063%=      5-min Rain = 0
KES1 191259Z 33015KT M00/M06 A3022 RMK A01 T10021063  RH  063%=      5-min Rain = 0
KES1 191300Z 33016KT M00/M06 A3023 RMK A01 T10021063  RH  063%=      5-min Rain = 0
KES1 191301Z 33020KT M00/M06 A3023 RMK A01 T10011062  RH  064%=      5-min Rain = 0
KES1 191302Z 33018KT M00/M06 A3023 RMK A01 T10021063  RH  063%=      5-min Rain = 0
KES1 191303Z 33018KT M00/M06 A3023 RMK A01 T10011063  RH  063%=      5-min Rain = 0
KES1 191304Z 33014KT M00/M06 A3023 RMK A01 T10021063  RH  063%=      5-min Rain = 0
KES1 191305Z 33014G19KT M00/M06 A3023 RMK A01 T10021062  RH  064%=      5-min Rain = 0
KES1 191306Z 33017KT M00/M06 A3023 RMK A01 T10021062  RH  064%=      5-min Rain = 0
KES1 191307Z 33016KT M00/M06 A3023 RMK A01 T10021062  RH  064%=      5-min Rain = 0
KES1 191308Z 33017KT M00/M06 A3023 RMK A01 T10021062  RH  064%=      5-min Rain = 0
KES1 191309Z 33012KT M00/M06 A3023 RMK A01 T10021062  RH  064%=      5-min Rain = 0
KES1 191310Z 34014G19KT M00/M06 A3023 RMK A01 T10021062  RH  064%=      5-min Rain = 0
KES1 191311Z 33013KT M00/M06 A3023 RMK A01 T10021062  RH  064%=      5-min Rain = 0
KES1 191312Z 33014KT M00/M06 A3023 RMK A01 T10021061  RH  064%=      5-min Rain = 0
KES1 191313Z 33016KT M00/M06 A3023 RMK A01 T10021061  RH  064%=      5-min Rain = 0
KES1 191314Z 33015KT M00/M06 A3023 RMK A01 T10021062  RH  064%=      5-min Rain = 0
KES1 191315Z 33014KT M00/M06 A3023 RMK A01 T10021062  RH  064%=      5-min Rain = 0
KES1 191316Z 33014KT M00/M06 A3023 RMK A01 T10021062  RH  064%=      5-min Rain = 0
KES1 191317Z 33016G22KT M00/M06 A3023 RMK A01 T10021062  RH  064%=      5-min Rain = 0
KES1 191318Z 33018KT M00/M06 A3024 RMK A01 T10021062  RH  064%=      5-min Rain = 0
KES1 191319Z 34016KT M00/M06 A3024 RMK A01 T10021061  RH  064%=      5-min Rain = 0
KES1 191320Z 34015KT M00/M06 A3024 RMK A01 T10021061  RH  064%=      5-min Rain = 0
KES1 191321Z 33014KT M00/M06 A3023 RMK A01 T10011061  RH  064%=      5-min Rain = 0
KES1 191322Z 33017KT M00/M06 A3023 RMK A01 T10021061  RH  064%=      5-min Rain = 0
KES1 191323Z 34015KT M00/M06 A3024 RMK A01 T10021061  RH  065%=      5-min Rain = 0
KES1 191324Z 34015KT M00/M06 A3023 RMK A01 T10021061  RH  065%=      5-min Rain = 0
KES1 191325Z 34016KT M00/M06 A3024 RMK A01 T10021061  RH  065%=      5-min Rain = 0
KES1 191326Z 33017KT M00/M06 A3024 RMK A01 T10021060  RH  065%=      5-min Rain = 0
KES1 191327Z 34015KT M00/M06 A3024 RMK A01 T10021061  RH  065%=      5-min Rain = 0
KES1 191328Z 34013KT M00/M06 A3023 RMK A01 T10021060  RH  065%=      5-min Rain = 0
KES1 191329Z 33011KT M00/M06 A3023 RMK A01 T10021060  RH  065%=      5-min Rain = 0
KES1 191330Z 34013KT M00/M06 A3023 RMK A01 T10031060  RH  065%=      5-min Rain = 0
KES1 191331Z 33013KT M00/M06 A3024 RMK A01 T10031059  RH  066%=      5-min Rain = 0
KES1 191332Z 34014KT M00/M06 A3024 RMK A01 T10031059  RH  066%=      5-min Rain = 0
KES1 191333Z 34012KT M00/M06 A3024 RMK A01 T10031060  RH  066%=      5-min Rain = 0
KES1 191334Z 34014KT M00/M06 A3024 RMK A01 T10031060  RH  066%=      5-min Rain = 0
KES1 191335Z 34014KT M00/M06 A3024 RMK A01 T10031059  RH  066%=      5-min Rain = 0
KES1 191336Z 34013KT M00/M06 A3024 RMK A01 T10031059  RH  066%=      5-min Rain = 0
KES1 191337Z 34012KT M00/M06 A3024 RMK A01 T10031059  RH  066%=      5-min Rain = 0
KES1 191338Z 34011KT M00/M06 A3024 RMK A01 T10031059  RH  066%=      5-min Rain = 0
KES1 191339Z 33011KT M00/M06 A3024 RMK A01 T10041059  RH  066%=      5-min Rain = 0
KES1 191340Z 33010KT M00/M06 A3024 RMK A01 T10041059  RH  066%=      5-min Rain = 0
KES1 191341Z 33012KT M00/M06 A3024 RMK A01 T10041059  RH  066%=      5-min Rain = 0
KES1 191342Z 33012KT M00/M06 A3024 RMK A01 T10041059  RH  066%=      5-min Rain = 0
KES1 191343Z 34010KT M00/M06 A3024 RMK A01 T10041059  RH  066%=      5-min Rain = 0
KES1 191344Z 34010KT M00/M06 A3025 RMK A01 T10041059  RH  066%=      5-min Rain = 0
KES1 191345Z 33012KT M00/M06 A3025 RMK A01 T10041059  RH  067%=      5-min Rain = 0
KES1 191346Z 34010KT M00/M06 A3025 RMK A01 T10041059  RH  067%=      5-min Rain = 0
KES1 191347Z 34010KT M00/M06 A3025 RMK A01 T10041058  RH  067%=      5-min Rain = 0
KES1 191348Z 33010KT M00/M06 A3025 RMK A01 T10041059  RH  067%=      5-min Rain = 0
KES1 191349Z 34012KT M00/M06 A3025 RMK A01 T10041058  RH  067%=      5-min Rain = 0
KES1 191350Z 33011KT M00/M06 A3025 RMK A01 T10041058  RH  067%=      5-min Rain = 0
KES1 191351Z 33011KT M00/M06 A3025 RMK A01 T10041058  RH  067%=      5-min Rain = 0
KES1 191352Z 34009KT M00/M06 A3025 RMK A01 T10041058  RH  067%=      5-min Rain = 0
KES1 191353Z 34009KT M00/M06 A3025 RMK A01 T10041058  RH  067%=      5-min Rain = 0
KES1 191354Z 33009KT M01/M06 A3025 RMK A01 T10051058  RH  067%=      5-min Rain = 0
KES1 191355Z 33009KT M01/M06 A3025 RMK A01 T10051058  RH  067%=      5-min Rain = 0
KES1 191356Z 34007KT M01/M06 A3025 RMK A01 T10051058  RH  067%=      5-min Rain = 0
KES1 191357Z 33007KT M01/M06 A3026 RMK A01 T10051058  RH  067%=      5-min Rain = 0
KES1 191358Z 33007KT M01/M06 A3026 RMK A01 T10051058  RH  068%=      5-min Rain = 0
KES1 191359Z 34009KT M01/M06 A3026 RMK A01 T10051058  RH  068%=      5-min Rain = 0
KES1 191400Z 33008KT M01/M06 A3026 RMK A01 T10051058  RH  068%=      5-min Rain = 0
KES1 191401Z 33009KT M01/M06 A3026 RMK A01 T10051058  RH  068%=      5-min Rain = 0
KES1 191402Z 34009KT M01/M06 A3026 RMK A01 T10051058  RH  068%=      5-min Rain = 0
KES1 191403Z 32008KT M00/M06 A3026 RMK A01 T10041057  RH  067%=      5-min Rain = 0
KES1 191404Z 33008KT M00/M06 A3026 RMK A01 T10041057  RH  067%=      5-min Rain = 0
KES1 191405Z 33009KT M00/M06 A3026 RMK A01 T10041057  RH  067%=      5-min Rain = 0
KES1 191406Z 33010KT M00/M06 A3026 RMK A01 T10041057  RH  067%=      5-min Rain = 0
KES1 191407Z 34010KT M00/M06 A3027 RMK A01 T10041057  RH  067%=      5-min Rain = 0
KES1 191408Z 33009KT M00/M06 A3026 RMK A01 T10031057  RH  067%=      5-min Rain = 0
KES1 191409Z 33012KT M00/M06 A3026 RMK A01 T10031057  RH  067%=      5-min Rain = 0
KES1 191410Z 32011KT M00/M06 A3026 RMK A01 T10031057  RH  067%=      5-min Rain = 0
KES1 191411Z 33010KT M00/M06 A3027 RMK A01 T10031057  RH  067%=      5-min Rain = 0
KES1 191412Z 33014KT M00/M06 A3027 RMK A01 T10021057  RH  067%=      5-min Rain = 0
KES1 191413Z 33011KT M00/M06 A3027 RMK A01 T10011056  RH  066%=      5-min Rain = 0
KES1 191414Z 34012KT M00/M06 A3027 RMK A01 T10011057  RH  066%=      5-min Rain = 0
KES1 191415Z 33012KT M00/M06 A3027 RMK A01 T10011057  RH  066%=      5-min Rain = 0
KES1 191416Z 34013KT M00/M06 A3027 RMK A01 T10011058  RH  066%=      5-min Rain = 0
KES1 191417Z 34009KT 00/06 A3027 RMK A01 T00-00-57  RH  065%=      5-min Rain = 0
KES1 191418Z 33016KT 00/06 A3027 RMK A01 T00-00-57  RH  065%=      5-min Rain = 0
KES1 191419Z 33016G21KT 00/06 A3027 RMK A01 T00000-58  RH  065%=      5-min Rain = 0
KES1 191420Z 34014G19KT 00/M06 A3027 RMK A01 T00011059  RH  064%=      5-min Rain = 0
KES1 191421Z 33013KT 00/M06 A3028 RMK A01 T00011059  RH  064%=      5-min Rain = 0
KES1 191422Z 34010KT 00/M06 A3028 RMK A01 T00011059  RH  064%=      5-min Rain = 0
KES1 191423Z 33012KT 00/M06 A3028 RMK A01 T00011058  RH  064%=      5-min Rain = 0
KES1 191424Z 33011KT 00/M06 A3028 RMK A01 T00021058  RH  064%=      5-min Rain = 0
KES1 191425Z 33012KT 00/M06 A3028 RMK A01 T00011058  RH  064%=      5-min Rain = 0
KES1 191426Z 34015KT 00/M06 A3028 RMK A01 T00011059  RH  064%=      5-min Rain = 0
KES1 191427Z 33013KT 00/M06 A3028 RMK A01 T00011059  RH  064%=      5-min Rain = 0
KES1 191428Z 34013KT 00/M06 A3028 RMK A01 T00021059  RH  064%=      5-min Rain = 0
KES1 191429Z 34014KT 00/M06 A3028 RMK A01 T00021060  RH  063%=      5-min Rain = 0
KES1 191430Z 34013G18KT 00/M06 A3028 RMK A01 T00021060  RH  063%=      5-min Rain = 0
KES1 191431Z 34014KT 00/M06 A3028 RMK A01 T00021061  RH  063%=      5-min Rain = 0
KES1 191432Z 33013KT 00/M06 A3028 RMK A01 T00021061  RH  063%=      5-min Rain = 0
KES1 191433Z 33011KT 00/M06 A3028 RMK A01 T00031061  RH  062%=      5-min Rain = 0
KES1 191434Z 33011KT 00/M06 A3028 RMK A01 T00031060  RH  063%=      5-min Rain = 0
KES1 191435Z 34014KT 00/M06 A3028 RMK A01 T00031061  RH  063%=      5-min Rain = 0
KES1 191436Z 33014KT 00/M06 A3028 RMK A01 T00031062  RH  062%=      5-min Rain = 0
KES1 191437Z 34016KT 00/M06 A3028 RMK A01 T00031062  RH  062%=      5-min Rain = 0
KES1 191438Z 34015KT 00/M06 A3028 RMK A01 T00031063  RH  061%=      5-min Rain = 0
KES1 191439Z 33015KT 00/M06 A3028 RMK A01 T00031063  RH  061%=      5-min Rain = 0
KES1 191440Z 33015KT 00/M06 A3028 RMK A01 T00041063  RH  061%=      5-min Rain = 0
KES1 191441Z 34016KT 00/M06 A3028 RMK A01 T00041063  RH  061%=      5-min Rain = 0
KES1 191442Z 34016KT 00/M06 A3028 RMK A01 T00041064  RH  060%=      5-min Rain = 0
KES1 191443Z 33017KT 00/M06 A3028 RMK A01 T00041064  RH  060%=      5-min Rain = 0
KES1 191444Z 33016KT 00/M06 A3028 RMK A01 T00041064  RH  060%=      5-min Rain = 0
KES1 191445Z 34015KT 00/M07 A3028 RMK A01 T00041065  RH  060%=      5-min Rain = 0
KES1 191446Z 34015KT 01/M07 A3028 RMK A01 T00051065  RH  060%=      5-min Rain = 0
KES1 191447Z 34020KT 01/M07 A3028 RMK A01 T00051066  RH  059%=      5-min Rain = 0
KES1 191448Z 34017KT 01/M07 A3028 RMK A01 T00051066  RH  059%=      5-min Rain = 0
KES1 191449Z 34011KT 01/M07 A3028 RMK A01 T00051066  RH  059%=      5-min Rain = 0
KES1 191450Z 34017KT 01/M07 A3029 RMK A01 T00051065  RH  060%=      5-min Rain = 0
KES1 191451Z 35018KT 01/M07 A3029 RMK A01 T00051066  RH  059%=      5-min Rain = 0
KES1 191452Z 34014KT 01/M07 A3029 RMK A01 T00051066  RH  059%=      5-min Rain = 0
KES1 191453Z 35013G18KT 01/M07 A3029 RMK A01 T00051065  RH  059%=      5-min Rain = 0
KES1 191454Z 34014KT 01/M07 A3029 RMK A01 T00061065  RH  059%=      5-min Rain = 0
KES1 191455Z 35016KT 01/M07 A3029 RMK A01 T00061065  RH  059%=      5-min Rain = 0
KES1 191456Z 34016KT 01/M07 A3029 RMK A01 T00061066  RH  058%=      5-min Rain = 0
KES1 191457Z 33014KT 01/M07 A3029 RMK A01 T00061066  RH  059%=      5-min Rain = 0
KES1 191458Z 34018G24KT 01/M07 A3029 RMK A01 T00061066  RH  059%=      5-min Rain = 0
KES1 191459Z 35014G20KT 01/M07 A3029 RMK A01 T00061067  RH  058%=      5-min Rain = 0
KES1 191500Z 34015G21KT 01/M07 A3029 RMK A01 T00061066  RH  058%=      5-min Rain = 0
KES1 191501Z 34016KT 01/M07 A3029 RMK A01 T00061066  RH  058%=      5-min Rain = 0
KES1 191502Z 34016KT 01/M07 A3029 RMK A01 T00071066  RH  058%=      5-min Rain = 0
KES1 191503Z 34015KT 01/M07 A3029 RMK A01 T00071066  RH  058%=      5-min Rain = 0
KES1 191504Z 33014KT 01/M07 A3029 RMK A01 T00081065  RH  058%=      5-min Rain = 0
KES1 191505Z 32019G24KT 01/M07 A3029 RMK A01 T00081065  RH  058%=      5-min Rain = 0
KES1 191506Z 33018KT 01/M07 A303 RMK A01 T00081066  RH  058%=      5-min Rain = 0
KES1 191507Z 34014G19KT 01/M07 A303 RMK A01 T00091065  RH  058%=      5-min Rain = 0
KES1 191508Z 33019KT 01/M07 A303 RMK A01 T00091065  RH  058%=      5-min Rain = 0
KES1 191509Z 33016KT 01/M07 A303 RMK A01 T00091065  RH  057%=      5-min Rain = 0
KES1 191510Z 33016KT 01/M07 A303 RMK A01 T00091065  RH  058%=      5-min Rain = 0
KES1 191511Z 33015G21KT 01/M07 A303 RMK A01 T00091065  RH  058%=      5-min Rain = 0
KES1 191512Z 33014KT 01/M06 A303 RMK A01 T00101064  RH  058%=      5-min Rain = 0
KES1 191513Z 34015KT 01/M06 A303 RMK A01 T00111063  RH  058%=      5-min Rain = 0
KES1 191514Z 32017KT 01/M06 A303 RMK A01 T00111064  RH  057%=      5-min Rain = 0
KES1 191515Z 33017KT 01/M06 A303 RMK A01 T00121063  RH  057%=      5-min Rain = 0
KES1 191516Z 33015KT 01/M06 A303 RMK A01 T00121064  RH  057%=      5-min Rain = 0
KES1 191517Z 33015G21KT 01/M06 A303 RMK A01 T00121062  RH  057%=      5-min Rain = 0
KES1 191518Z 33021G26KT 01/M06 A3031 RMK A01 T00131063  RH  057%=      5-min Rain = 0
KES1 191519Z 33020KT 01/M06 A3031 RMK A01 T00121064  RH  057%=      5-min Rain = 0
KES1 191520Z 33020KT 01/M06 A3031 RMK A01 T00121064  RH  057%=      5-min Rain = 0
KES1 191521Z 33017G23KT 01/M06 A3031 RMK A01 T00121063  RH  057%=      5-min Rain = 0
KES1 191522Z 33021KT 01/M06 A3031 RMK A01 T00121063  RH  057%=      5-min Rain = 0
KES1 191523Z 33018KT 01/M06 A3031 RMK A01 T00121064  RH  057%=      5-min Rain = 0
KES1 191524Z 33017KT 01/M06 A3031 RMK A01 T00131062  RH  057%=      5-min Rain = 0
KES1 191525Z 34020G28KT 01/M06 A3031 RMK A01 T00141062  RH  057%=      5-min Rain = 0
KES1 191526Z 33021KT 01/M06 A3031 RMK A01 T00141064  RH  056%=      5-min Rain = 0
KES1 191527Z 33018KT 01/M06 A3031 RMK A01 T00141064  RH  056%=      5-min Rain = 0
KES1 191528Z 33017G22KT 01/M06 A3031 RMK A01 T00141062  RH  057%=      5-min Rain = 0
KES1 191529Z 33020G26KT 02/M06 A3031 RMK A01 T00151062  RH  057%=      5-min Rain = 0
KES1 191530Z 34018G24KT 02/M06 A3031 RMK A01 T00151063  RH  056%=      5-min Rain = 0
KES1 191531Z 33019G24KT 02/M06 A3031 RMK A01 T00151063  RH  056%=      5-min Rain = 0
KES1 191532Z 33021G26KT 02/M06 A3031 RMK A01 T00161063  RH  056%=      5-min Rain = 0
KES1 191533Z 33019G24KT 02/M07 A3031 RMK A01 T00161065  RH  055%=      5-min Rain = 0
KES1 191534Z 33019KT 02/M07 A3031 RMK A01 T00161065  RH  055%=      5-min Rain = 0
KES1 191535Z 33016KT 02/M06 A3031 RMK A01 T00171064  RH  055%=      5-min Rain = 0
KES1 191536Z 33019G25KT 02/M06 A3031 RMK A01 T00181062  RH  055%=      5-min Rain = 0
KES1 191537Z 33018G25KT 02/M06 A3032 RMK A01 T00191064  RH  054%=      5-min Rain = 0
KES1 191538Z 33022G28KT 02/M07 A3032 RMK A01 T00181065  RH  054%=      5-min Rain = 0
KES1 191539Z 33022KT 02/M07 A3032 RMK A01 T00181066  RH  053%=      5-min Rain = 0
KES1 191540Z 34020G25KT 02/M07 A3032 RMK A01 T00171068  RH  053%=      5-min Rain = 0
KES1 191541Z 34018KT 02/M07 A3032 RMK A01 T00171067  RH  054%=      5-min Rain = 0
KES1 191542Z 34017KT 02/M07 A3032 RMK A01 T00171066  RH  054%=      5-min Rain = 0
KES1 191543Z 34019KT 02/M07 A3032 RMK A01 T00181065  RH  054%=      5-min Rain = 0
KES1 191544Z 34020G27KT 02/M07 A3032 RMK A01 T00191066  RH  053%=      5-min Rain = 0
KES1 191545Z 33020KT 02/M07 A3032 RMK A01 T00191066  RH  053%=      5-min Rain = 0
KES1 191546Z 34016G21KT 02/M07 A3032 RMK A01 T00191065  RH  054%=      5-min Rain = 0
KES1 191547Z 33019G24KT 02/M07 A3032 RMK A01 T00201065  RH  054%=      5-min Rain = 0
KES1 191548Z 34017G22KT 02/M07 A3032 RMK A01 T00201065  RH  053%=      5-min Rain = 0
KES1 191549Z 34019KT 02/M07 A3032 RMK A01 T00211065  RH  053%=      5-min Rain = 0
KES1 191550Z 34019KT 02/M07 A3032 RMK A01 T00201066  RH  053%=      5-min Rain = 0
KES1 191551Z 33021G26KT 02/M07 A3032 RMK A01 T00211066  RH  053%=      5-min Rain = 0
KES1 191552Z 33024KT 02/M07 A3032 RMK A01 T00211066  RH  053%=      5-min Rain = 0
KES1 191553Z 33023G28KT 02/M07 A3033 RMK A01 T00201067  RH  053%=      5-min Rain = 0
KES1 191554Z 33023KT 02/M07 A3033 RMK A01 T00191067  RH  053%=      5-min Rain = 0
KES1 191555Z 34023G29KT 02/M07 A3033 RMK A01 T00191067  RH  053%=      5-min Rain = 0
KES1 191556Z 34022G28KT 02/M07 A3032 RMK A01 T00191067  RH  053%=      5-min Rain = 0
KES1 191557Z 34023KT 02/M07 A3032 RMK A01 T00201067  RH  053%=      5-min Rain = 0
KES1 191558Z 34017G22KT 02/M07 A3032 RMK A01 T00201066  RH  053%=      5-min Rain = 0
KES1 191559Z 34018KT 02/M07 A3032 RMK A01 T00211065  RH  053%=      5-min Rain = 0
KES1 191600Z 33022G29KT 02/M07 A3032 RMK A01 T00221066  RH  052%=      5-min Rain = 0
KES1 191601Z 34023KT 02/M07 A3032 RMK A01 T00221067  RH  052%=      5-min Rain = 0
KES1 191602Z 34021G28KT 02/M07 A3032 RMK A01 T00211067  RH  052%=      5-min Rain = 0
KES1 191603Z 34017G22KT 02/M07 A3032 RMK A01 T00221066  RH  052%=      5-min Rain = 0
KES1 191604Z 33020G25KT 02/M07 A3032 RMK A01 T00221066  RH  052%=      5-min Rain = 0
KES1 191605Z 34019G24KT 02/M07 A3032 RMK A01 T00231066  RH  052%=      5-min Rain = 0
KES1 191606Z 34022G27KT 02/M07 A3032 RMK A01 T00231065  RH  052%=      5-min Rain = 0
KES1 191607Z 34024KT 02/M07 A3033 RMK A01 T00231066  RH  052%=      5-min Rain = 0
KES1 191608Z 34022KT 02/M07 A3033 RMK A01 T00231067  RH  051%=      5-min Rain = 0
KES1 191609Z 34021G28KT 02/M07 A3032 RMK A01 T00231066  RH  052%=      5-min Rain = 0
KES1 191610Z 34026G32KT 02/M07 A3033 RMK A01 T00241067  RH  051%=      5-min Rain = 0
KES1 191611Z 34024G29KT 02/M07 A3033 RMK A01 T00231069  RH  051%=      5-min Rain = 0
KES1 191612Z 34018G24KT 02/M07 A3033 RMK A01 T00231068  RH  051%=      5-min Rain = 0
KES1 191613Z 34018G24KT 02/M07 A3033 RMK A01 T00241067  RH  051%=      5-min Rain = 0
KES1 191614Z 34021G26KT 03/M07 A3033 RMK A01 T00251067  RH  051%=      5-min Rain = 0
KES1 191615Z 34021KT 03/M07 A3033 RMK A01 T00251068  RH  050%=      5-min Rain = 0
KES1 191616Z 33020KT 03/M07 A3033 RMK A01 T00251068  RH  050%=      5-min Rain = 0
KES1 191617Z 34021KT 03/M07 A3033 RMK A01 T00261067  RH  050%=      5-min Rain = 0
KES1 191618Z 35019G24KT 03/M07 A3033 RMK A01 T00261067  RH  050%=      5-min Rain = 0
KES1 191619Z 35019G28KT 03/M07 A3033 RMK A01 T00271067  RH  050%=      5-min Rain = 0
KES1 191620Z 34017G24KT 03/M07 A3033 RMK A01 T00271067  RH  050%=      5-min Rain = 0
KES1 191621Z 34018G23KT 03/M07 A3033 RMK A01 T00281066  RH  050%=      5-min Rain = 0
KES1 191622Z 34020KT 03/M07 A3033 RMK A01 T00291066  RH  050%=      5-min Rain = 0
KES1 191623Z 34018KT 03/M07 A3033 RMK A01 T00301065  RH  050%=      5-min Rain = 0
KES1 191624Z 34020KT 03/M07 A3033 RMK A01 T00301065  RH  050%=      5-min Rain = 0
KES1 191625Z 33021KT 03/M07 A3033 RMK A01 T00301066  RH  049%=      5-min Rain = 0
KES1 191626Z 33021G26KT 03/M07 A3033 RMK A01 T00291066  RH  050%=      5-min Rain = 0
KES1 191627Z 33021KT 03/M07 A3033 RMK A01 T00291065  RH  050%=      5-min Rain = 0
KES1 191628Z 33021KT 03/M07 A3033 RMK A01 T00291066  RH  050%=      5-min Rain = 0
KES1 191629Z 33018G25KT 03/M07 A3033 RMK A01 T00281065  RH  050%=      5-min Rain = 0
KES1 191630Z 34020KT 03/M06 A3033 RMK A01 T00281064  RH  051%=      5-min Rain = 0
KES1 191631Z 34019KT 03/M06 A3033 RMK A01 T00291063  RH  051%=      5-min Rain = 0
KES1 191632Z 34018G23KT 03/M06 A3033 RMK A01 T00311062  RH  051%=      5-min Rain = 0
KES1 191633Z 34017KT 03/M06 A3033 RMK A01 T00321062  RH  050%=      5-min Rain = 0
KES1 191634Z 34017KT 03/M06 A3033 RMK A01 T00321062  RH  050%=      5-min Rain = 0
KES1 191635Z 34016G21KT 03/M06 A3033 RMK A01 T00311063  RH  050%=      5-min Rain = 0
KES1 191636Z 35019KT 03/M06 A3033 RMK A01 T00321061  RH  050%=      5-min Rain = 0
KES1 191637Z 35018G26KT 03/M06 A3033 RMK A01 T00331061  RH  050%=      5-min Rain = 0
KES1 191638Z 34019KT 03/M06 A3033 RMK A01 T00331063  RH  050%=      5-min Rain = 0
KES1 191639Z 35015G20KT 03/M06 A3033 RMK A01 T00331063  RH  050%=      5-min Rain = 0
KES1 191640Z 33019KT 03/M06 A3033 RMK A01 T00341062  RH  049%=      5-min Rain = 0
KES1 191641Z 34019KT 03/M06 A3033 RMK A01 T00341064  RH  049%=      5-min Rain = 0
KES1 191642Z 35018KT 03/M06 A3033 RMK A01 T00341063  RH  049%=      5-min Rain = 0
KES1 191643Z 33019KT 04/M06 A3033 RMK A01 T00351063  RH  049%=      5-min Rain = 0
KES1 191644Z 33018KT 03/M06 A3033 RMK A01 T00341063  RH  049%=      5-min Rain = 0
KES1 191645Z 34017KT 03/M06 A3033 RMK A01 T00331064  RH  049%=      5-min Rain = 0
KES1 191646Z 34018G23KT 03/M06 A3033 RMK A01 T00331064  RH  049%=      5-min Rain = 0
KES1 191647Z 34018G25KT 03/M06 A3033 RMK A01 T00341063  RH  049%=      5-min Rain = 0
KES1 191648Z 35019KT 03/M07 A3034 RMK A01 T00341065  RH  048%=      5-min Rain = 0
KES1 191649Z 34022G27KT 03/M07 A3034 RMK A01 T00341065  RH  048%=      5-min Rain = 0
KES1 191650Z 34021G28KT 04/M07 A3034 RMK A01 T00351066  RH  048%=      5-min Rain = 0
KES1 191651Z 34021G26KT 04/M07 A3034 RMK A01 T00351066  RH  048%=      5-min Rain = 0
KES1 191652Z 35018KT 04/M07 A3034 RMK A01 T00351065  RH  048%=      5-min Rain = 0
KES1 191653Z 35019KT 04/M06 A3034 RMK A01 T00361064  RH  048%=      5-min Rain = 0
KES1 191654Z 35019KT 04/M07 A3034 RMK A01 T00351065  RH  048%=      5-min Rain = 0
KES1 191655Z 35020KT 04/M07 A3034 RMK A01 T00351065  RH  048%=      5-min Rain = 0
KES1 191656Z 35019KT 04/M07 A3033 RMK A01 T00351065  RH  048%=      5-min Rain = 0
KES1 191657Z 34016KT 04/M07 A3033 RMK A01 T00361065  RH  048%=      5-min Rain = 0
KES1 191658Z 35017G22KT 04/M06 A3033 RMK A01 T00381063  RH  048%=      5-min Rain = 0
KES1 191659Z 34019KT 04/M07 A3034 RMK A01 T00381065  RH  047%=      5-min Rain = 0
KES1 191700Z 35021KT 04/M07 A3034 RMK A01 T00371066  RH  047%=      5-min Rain = 0
KES1 191701Z 34020KT 04/M07 A3034 RMK A01 T00361066  RH  047%=      5-min Rain = 0
KES1 191702Z 35022KT 04/M07 A3034 RMK A01 T00361065  RH  047%=      5-min Rain = 0
KES1 191703Z 35021KT 04/M07 A3034 RMK A01 T00371065  RH  047%=      5-min Rain = 0
KES1 191704Z 34022G28KT 04/M06 A3034 RMK A01 T00381064  RH  047%=      5-min Rain = 0
KES1 191705Z 34023G28KT 04/M06 A3034 RMK A01 T00391064  RH  047%=      5-min Rain = 0
KES1 191706Z 34023KT 04/M07 A3034 RMK A01 T00381065  RH  047%=      5-min Rain = 0
KES1 191707Z 34019G26KT 04/M06 A3034 RMK A01 T00371064  RH  048%=      5-min Rain = 0
KES1 191708Z 34020KT 04/M06 A3034 RMK A01 T00381063  RH  048%=      5-min Rain = 0
KES1 191709Z 34024G29KT 04/M06 A3034 RMK A01 T00381064  RH  047%=      5-min Rain = 0
KES1 191710Z 34020KT 04/M07 A3034 RMK A01 T00361065  RH  048%=      5-min Rain = 0
KES1 191711Z 34019G25KT 04/M06 A3034 RMK A01 T00361063  RH  048%=      5-min Rain = 0
KES1 191712Z 34021G26KT 04/M06 A3034 RMK A01 T00371063  RH  048%=      5-min Rain = 0
KES1 191713Z 34024G29KT 04/M06 A3034 RMK A01 T00371063  RH  048%=      5-min Rain = 0
KES1 191714Z 34021KT 04/M06 A3034 RMK A01 T00371063  RH  048%=      5-min Rain = 0
KES1 191715Z 34021KT 04/M06 A3034 RMK A01 T00391062  RH  048%=      5-min Rain = 0
KES1 191716Z 34020G25KT 04/M06 A3034 RMK A01 T00391061  RH  048%=      5-min Rain = 0
KES1 191717Z 34022KT 04/M06 A3034 RMK A01 T00391061  RH  048%=      5-min Rain = 0
KES1 191718Z 35023KT 04/M06 A3034 RMK A01 T00391061  RH  048%=      5-min Rain = 0
KES1 191719Z 34021KT 04/M06 A3034 RMK A01 T00391062  RH  048%=      5-min Rain = 0
KES1 191720Z 34022KT 04/M06 A3034 RMK A01 T00381061  RH  048%=      5-min Rain = 0
KES1 191721Z 33020KT 04/M06 A3034 RMK A01 T00391061  RH  048%=      5-min Rain = 0
KES1 191722Z 33017G22KT 04/M06 A3034 RMK A01 T00391060  RH  048%=      5-min Rain = 0
KES1 191723Z 35019G25KT 04/M06 A3034 RMK A01 T00401059  RH  048%=      5-min Rain = 0
KES1 191724Z 34020KT 04/M06 A3034 RMK A01 T00401060  RH  048%=      5-min Rain = 0
KES1 191725Z 34021KT 04/M06 A3034 RMK A01 T00381061  RH  048%=      5-min Rain = 0
KES1 191726Z 35018KT 04/M06 A3034 RMK A01 T00381060  RH  049%=      5-min Rain = 0
KES1 191727Z 35021G26KT 04/M06 A3034 RMK A01 T00391060  RH  048%=      5-min Rain = 0
KES1 191728Z 34017KT 04/M06 A3034 RMK A01 T00391059  RH  049%=      5-min Rain = 0
KES1 191729Z 34020KT 04/M06 A3034 RMK A01 T00411058  RH  048%=      5-min Rain = 0
KES1 191730Z 34022KT 04/M06 A3034 RMK A01 T00391060  RH  048%=      5-min Rain = 0
KES1 191731Z 35017KT 04/M06 A3034 RMK A01 T00361062  RH  049%=      5-min Rain = 0
KES1 191732Z 35018G23KT 04/M06 A3035 RMK A01 T00361059  RH  050%=      5-min Rain = 0
KES1 191733Z 34020KT 04/M06 A3034 RMK A01 T00381059  RH  049%=      5-min Rain = 0
KES1 191734Z 34018KT 04/M06 A3034 RMK A01 T00391059  RH  049%=      5-min Rain = 0
KES1 191735Z 34014KT 04/M06 A3034 RMK A01 T00391058  RH  049%=      5-min Rain = 0
KES1 191736Z 33017KT 04/M06 A3034 RMK A01 T00411056  RH  049%=      5-min Rain = 0
KES1 191737Z 32019KT 04/M06 A3034 RMK A01 T00431055  RH  049%=      5-min Rain = 0
KES1 191738Z 32020G25KT 04/M06 A3034 RMK A01 T00441056  RH  048%=      5-min Rain = 0
KES1 191739Z 33018KT 04/M06 A3034 RMK A01 T00431058  RH  048%=      5-min Rain = 0
KES1 191740Z 33019KT 04/M06 A3034 RMK A01 T00421057  RH  048%=      5-min Rain = 0
KES1 191741Z 34018G24KT 04/M06 A3034 RMK A01 T00401058  RH  049%=      5-min Rain = 0
KES1 191742Z 34020G25KT 04/M06 A3034 RMK A01 T00401057  RH  049%=      5-min Rain = 0
KES1 191743Z 33017KT 04/M06 A3034 RMK A01 T00421056  RH  049%=      5-min Rain = 0
KES1 191744Z 34015KT 04/M06 A3034 RMK A01 T00421057  RH  048%=      5-min Rain = 0
KES1 191745Z 34016G21KT 04/M06 A3034 RMK A01 T00421056  RH  049%=      5-min Rain = 0
KES1 191746Z 34018G23KT 04/M06 A3034 RMK A01 T00421057  RH  049%=      5-min Rain = 0
KES1 191747Z 34019G24KT 04/M06 A3034 RMK A01 T00431056  RH  049%=      5-min Rain = 0
KES1 191748Z 34021KT 04/M06 A3034 RMK A01 T00431056  RH  048%=      5-min Rain = 0
KES1 191749Z 34020KT 04/M06 A3034 RMK A01 T00421058  RH  048%=      5-min Rain = 0
KES1 191750Z 34017KT 04/M06 A3034 RMK A01 T00401058  RH  049%=      5-min Rain = 0
KES1 191751Z 34020KT 04/M06 A3034 RMK A01 T00421055  RH  049%=      5-min Rain = 0
KES1 191752Z 34023KT 04/M06 A3034 RMK A01 T00441056  RH  048%=      5-min Rain = 0
KES1 191753Z 34019KT 04/M06 A3034 RMK A01 T00441057  RH  048%=      5-min Rain = 0
KES1 191754Z 33017KT 04/M06 A3034 RMK A01 T00441056  RH  048%=      5-min Rain = 0
KES1 191755Z 34019KT 04/M06 A3034 RMK A01 T00441056  RH  048%=      5-min Rain = 0
KES1 191756Z 33018KT 05/M06 A3033 RMK A01 T00451057  RH  048%=      5-min Rain = 0
KES1 191757Z 33016G23KT 05/M06 A3033 RMK A01 T00471055  RH  048%=      5-min Rain = 0
KES1 191758Z 35021KT 05/M06 A3033 RMK A01 T00481056  RH  047%=      5-min Rain = 0
KES1 191759Z 35018KT 05/M06 A3033 RMK A01 T00471056  RH  047%=      5-min Rain = 0
KES1 191800Z 35017KT 05/M06 A3033 RMK A01 T00471057  RH  047%=      5-min Rain = 0
KES1 191801Z 34020KT 05/M06 A3033 RMK A01 T00471056  RH  047%=      5-min Rain = 0
KES1 191802Z 34017G23KT 05/M06 A3033 RMK A01 T00461055  RH  048%=      5-min Rain = 0
KES1 191803Z 33019G24KT 05/M06 A3033 RMK A01 T00471055  RH  047%=      5-min Rain = 0
KES1 191804Z 32020KT 05/M06 A3033 RMK A01 T00451056  RH  048%=      5-min Rain = 0
KES1 191805Z 32019KT 05/M06 A3033 RMK A01 T00471055  RH  048%=      5-min Rain = 0
KES1 191806Z 31020KT 05/M06 A3033 RMK A01 T00471055  RH  047%=      5-min Rain = 0
KES1 191807Z 32021KT 05/M05 A3033 RMK A01 T00491054  RH  047%=      5-min Rain = 0
KES1 191808Z 32021KT 05/M06 A3033 RMK A01 T00491055  RH  047%=      5-min Rain = 0
KES1 191809Z 32018KT 05/M05 A3033 RMK A01 T00491054  RH  047%=      5-min Rain = 0
KES1 191810Z 32020KT 05/M06 A3033 RMK A01 T00501055  RH  047%=      5-min Rain = 0
KES1 191811Z 33018KT 05/M06 A3033 RMK A01 T00491055  RH  047%=      5-min Rain = 0
KES1 191812Z 34020KT 05/M06 A3033 RMK A01 T00471057  RH  047%=      5-min Rain = 0
KES1 191813Z 34015G20KT 05/M06 A3033 RMK A01 T00451056  RH  048%=      5-min Rain = 0
KES1 191814Z 35017KT 05/M05 A3032 RMK A01 T00481052  RH  048%=      5-min Rain = 0
KES1 191815Z 33021KT 05/M05 A3032 RMK A01 T00501054  RH  047%=      5-min Rain = 0
KES1 191816Z 33019KT 05/M06 A3033 RMK A01 T00491055  RH  047%=      5-min Rain = 0
KES1 191817Z 32022KT 05/M06 A3033 RMK A01 T00481056  RH  047%=      5-min Rain = 0
KES1 191818Z 32017KT 05/M06 A3032 RMK A01 T00461057  RH  047%=      5-min Rain = 0
KES1 191819Z 32020KT 05/M05 A3032 RMK A01 T00471054  RH  048%=      5-min Rain = 0
KES1 191820Z 32018KT 05/M05 A3032 RMK A01 T00471054  RH  048%=      5-min Rain = 0
KES1 191821Z 33020KT 05/M05 A3032 RMK A01 T00491054  RH  048%=      5-min Rain = 0
KES1 191822Z 33019KT 05/M06 A3032 RMK A01 T00471055  RH  047%=      5-min Rain = 0
KES1 191823Z 33018KT 05/M05 A3032 RMK A01 T00471054  RH  048%=      5-min Rain = 0
KES1 191824Z 32019KT 05/M06 A3031 RMK A01 T00471055  RH  048%=      5-min Rain = 0
KES1 191825Z 32020KT 05/M05 A3031 RMK A01 T00481053  RH  048%=      5-min Rain = 0
KES1 191826Z 33019KT 05/M05 A3031 RMK A01 T00501053  RH  047%=      5-min Rain = 0
KES1 191827Z 32020KT 05/M05 A3031 RMK A01 T00491054  RH  047%=      5-min Rain = 0
KES1 191828Z 32017KT 05/M05 A3031 RMK A01 T00501052  RH  048%=      5-min Rain = 0
KES1 191829Z 34014KT 05/M05 A3031 RMK A01 T00531050  RH  047%=      5-min Rain = 0
KES1 191830Z 33016KT 06/M05 A3031 RMK A01 T00551050  RH  047%=      5-min Rain = 0
KES1 191831Z 34015KT 06/M05 A3032 RMK A01 T00551052  RH  046%=      5-min Rain = 0
KES1 191832Z 34017KT 06/M05 A3032 RMK A01 T00551052  RH  046%=      5-min Rain = 0
KES1 191833Z 34020KT 05/M05 A3032 RMK A01 T00531053  RH  046%=      5-min Rain = 0
KES1 191834Z 34020KT 05/M05 A3032 RMK A01 T00511054  RH  046%=      5-min Rain = 0
KES1 191835Z 34021KT 05/M05 A3032 RMK A01 T00511054  RH  046%=      5-min Rain = 0
KES1 191836Z 34020G25KT 05/M06 A3031 RMK A01 T00501055  RH  047%=      5-min Rain = 0
KES1 191837Z 34016KT 05/M05 A3031 RMK A01 T00511054  RH  047%=      5-min Rain = 0
KES1 191838Z 33018KT 05/M05 A3031 RMK A01 T00521054  RH  046%=      5-min Rain = 0
KES1 191839Z 34020KT 05/M06 A3031 RMK A01 T00511055  RH  046%=      5-min Rain = 0
KES1 191840Z 34018KT 05/M06 A3032 RMK A01 T00511055  RH  046%=      5-min Rain = 0
KES1 191841Z 34018G23KT 05/M05 A3032 RMK A01 T00521054  RH  046%=      5-min Rain = 0
KES1 191842Z 34019KT 05/M06 A3032 RMK A01 T00521056  RH  046%=      5-min Rain = 0
KES1 191843Z 34017KT 05/M06 A3032 RMK A01 T00501055  RH  046%=      5-min Rain = 0
KES1 191844Z 34015KT 05/M06 A3032 RMK A01 T00491055  RH  047%=      5-min Rain = 0
KES1 191845Z 34016KT 05/M05 A3031 RMK A01 T00491054  RH  047%=      5-min Rain = 0
KES1 191846Z 32016KT 05/M05 A3032 RMK A01 T00521052  RH  047%=      5-min Rain = 0
KES1 191847Z 33017G23KT 05/M05 A3031 RMK A01 T00521054  RH  046%=      5-min Rain = 0
KES1 191848Z 34019KT 05/M05 A3032 RMK A01 T00531053  RH  046%=      5-min Rain = 0
KES1 191849Z 35017KT 05/M05 A3032 RMK A01 T00541054  RH  046%=      5-min Rain = 0
KES1 191850Z 33015KT 05/M05 A3032 RMK A01 T00541053  RH  046%=      5-min Rain = 0
KES1 191851Z 33017KT 06/M05 A3032 RMK A01 T00551053  RH  046%=      5-min Rain = 0
KES1 191852Z 33017KT 06/M05 A3032 RMK A01 T00561053  RH  045%=      5-min Rain = 0
KES1 191853Z 32018KT 06/M05 A3031 RMK A01 T00551054  RH  045%=      5-min Rain = 0
KES1 191854Z 34018KT 06/M05 A3031 RMK A01 T00561053  RH  045%=      5-min Rain = 0
KES1 191855Z 33021KT 06/M05 A3031 RMK A01 T00561054  RH  045%=      5-min Rain = 0
KES1 191856Z 33022KT 06/M06 A3031 RMK A01 T00551055  RH  045%=      5-min Rain = 0
KES1 191857Z 33020KT 05/M06 A3031 RMK A01 T00541056  RH  045%=      5-min Rain = 0
KES1 191858Z 33021G26KT 05/M06 A3032 RMK A01 T00531055  RH  046%=      5-min Rain = 0
KES1 191859Z 34021KT 05/M06 A3031 RMK A01 T00521056  RH  046%=      5-min Rain = 0
KES1 191900Z 33017KT 05/M06 A3031 RMK A01 T00511056  RH  046%=      5-min Rain = 0
KES1 191901Z 34016KT 05/M05 A3031 RMK A01 T00541052  RH  046%=      5-min Rain = 0
KES1 191902Z 34016G22KT 06/M05 A3031 RMK A01 T00551054  RH  045%=      5-min Rain = 0
KES1 191903Z 34015G21KT 06/M05 A3031 RMK A01 T00551053  RH  046%=      5-min Rain = 0
KES1 191904Z 34017KT 06/M05 A3031 RMK A01 T00571052  RH  045%=      5-min Rain = 0
KES1 191905Z 35015KT 06/M05 A3031 RMK A01 T00571053  RH  045%=      5-min Rain = 0
KES1 191906Z 33016KT 06/M05 A3031 RMK A01 T00571052  RH  045%=      5-min Rain = 0
KES1 191907Z 33013KT 06/M05 A303 RMK A01 T00581053  RH  045%=      5-min Rain = 0
KES1 191908Z 33014KT 06/M05 A303 RMK A01 T00571053  RH  045%=      5-min Rain = 0
KES1 191909Z 34016KT 06/M05 A303 RMK A01 T00581052  RH  045%=      5-min Rain = 0
KES1 191910Z 33021KT 06/M05 A303 RMK A01 T00601054  RH  044%=      5-min Rain = 0
KES1 191911Z 34018G23KT 06/M06 A303 RMK A01 T00581057  RH  044%=      5-min Rain = 0
KES1 191912Z 35016KT 06/M06 A303 RMK A01 T00571057  RH  044%=      5-min Rain = 0
KES1 191913Z 34016KT 06/M06 A303 RMK A01 T00581055  RH  044%=      5-min Rain = 0
KES1 191914Z 34016G22KT 06/M05 A303 RMK A01 T00611053  RH  044%=      5-min Rain = 0
KES1 191915Z 34020KT 06/M06 A3031 RMK A01 T00611055  RH  043%=      5-min Rain = 0
KES1 191916Z 34020KT 06/M06 A3031 RMK A01 T00601056  RH  043%=      5-min Rain = 0
KES1 191917Z 34019KT 06/M06 A3031 RMK A01 T00601056  RH  043%=      5-min Rain = 0
KES1 191918Z 34020KT 06/M06 A3031 RMK A01 T00591057  RH  043%=      5-min Rain = 0
KES1 191919Z 35019G24KT 06/M06 A303 RMK A01 T00591057  RH  043%=      5-min Rain = 0
KES1 191920Z 35019KT 06/M06 A303 RMK A01 T00601057  RH  043%=      5-min Rain = 0
KES1 191921Z 34020KT 06/M06 A303 RMK A01 T00601057  RH  043%=      5-min Rain = 0
KES1 191922Z 34017KT 06/M06 A303 RMK A01 T00591057  RH  043%=      5-min Rain = 0
KES1 191923Z 34015KT 06/M06 A303 RMK A01 T00591057  RH  043%=      5-min Rain = 0
KES1 191924Z 35017KT 06/M05 A303 RMK A01 T00621054  RH  043%=      5-min Rain = 0
KES1 191925Z 34015KT 06/M06 A303 RMK A01 T00631055  RH  043%=      5-min Rain = 0
KES1 191926Z 33018KT 06/M05 A3029 RMK A01 T00641054  RH  042%=      5-min Rain = 0
KES1 191927Z 33018KT 06/M06 A303 RMK A01 T00641055  RH  042%=      5-min Rain = 0
KES1 191928Z 34016KT 06/M06 A303 RMK A01 T00631056  RH  042%=      5-min Rain = 0
KES1 191929Z 34014G20KT 06/M06 A3029 RMK A01 T00631055  RH  043%=      5-min Rain = 0
KES1 191930Z 34018KT 06/M06 A303 RMK A01 T00641055  RH  042%=      5-min Rain = 0
KES1 191931Z 34017KT 06/M06 A3029 RMK A01 T00631056  RH  042%=      5-min Rain = 0
KES1 191932Z 34016KT 06/M06 A3029 RMK A01 T00641055  RH  042%=      5-min Rain = 0
KES1 191933Z 35016KT 07/M06 A3029 RMK A01 T00651056  RH  042%=      5-min Rain = 0
KES1 191934Z 35021KT 06/M06 A3029 RMK A01 T00641056  RH  042%=      5-min Rain = 0
KES1 191935Z 35021KT 06/M06 A3029 RMK A01 T00621059  RH  041%=      5-min Rain = 0
KES1 191936Z 35016KT 06/M06 A3029 RMK A01 T00611058  RH  042%=      5-min Rain = 0
KES1 191937Z 34017KT 07/M06 A3029 RMK A01 T00651055  RH  042%=      5-min Rain = 0
KES1 191938Z 34020KT 07/M06 A3029 RMK A01 T00661056  RH  041%=      5-min Rain = 0
KES1 191939Z 34018G23KT 06/M06 A3029 RMK A01 T00641059  RH  041%=      5-min Rain = 0
KES1 191940Z 34020KT 06/M06 A3029 RMK A01 T00631058  RH  042%=      5-min Rain = 0
KES1 191941Z 33017KT 06/M06 A3029 RMK A01 T00621059  RH  042%=      5-min Rain = 0
KES1 191942Z 33013KT 06/M06 A3029 RMK A01 T00631057  RH  042%=      5-min Rain = 0
KES1 191943Z 35016KT 07/M06 A3029 RMK A01 T00651055  RH  042%=      5-min Rain = 0
KES1 191944Z 34014KT 07/M05 A3029 RMK A01 T00671054  RH  042%=      5-min Rain = 0
KES1 191945Z 35013KT 07/M05 A3029 RMK A01 T00681054  RH  041%=      5-min Rain = 0
KES1 191946Z 33015KT 07/M06 A3029 RMK A01 T00691055  RH  041%=      5-min Rain = 0
KES1 191947Z 32015KT 07/M06 A3028 RMK A01 T00681055  RH  041%=      5-min Rain = 0
KES1 191948Z 33016KT 07/M05 A3028 RMK A01 T00701054  RH  041%=      5-min Rain = 0
KES1 191949Z 33019KT 07/M06 A3029 RMK A01 T00701056  RH  040%=      5-min Rain = 0
KES1 191950Z 33017KT 07/M06 A3028 RMK A01 T00671057  RH  041%=      5-min Rain = 0
KES1 191951Z 33013KT 07/M06 A3028 RMK A01 T00661057  RH  041%=      5-min Rain = 0
KES1 191952Z 33016KT 07/M06 A3028 RMK A01 T00661056  RH  041%=      5-min Rain = 0
KES1 191953Z 32015KT 07/M06 A3028 RMK A01 T00651057  RH  041%=      5-min Rain = 0
KES1 191954Z 33017KT 07/M06 A3028 RMK A01 T00661055  RH  042%=      5-min Rain = 0
KES1 191955Z 34017KT 07/M06 A3028 RMK A01 T00681056  RH  041%=      5-min Rain = 0
KES1 191956Z 34016KT 07/M06 A3028 RMK A01 T00671057  RH  041%=      5-min Rain = 0
KES1 191957Z 33015KT 07/M06 A3028 RMK A01 T00671058  RH  041%=      5-min Rain = 0
KES1 191958Z 32019KT 07/M06 A3028 RMK A01 T00661057  RH  041%=      5-min Rain = 0
KES1 191959Z 32019KT 07/M06 A3028 RMK A01 T00671057  RH  041%=      5-min Rain = 0
KES1 192000Z 32018KT 07/M06 A3028 RMK A01 T00681056  RH  041%=      5-min Rain = 0
KES1 192001Z 32019G24KT 07/M06 A3028 RMK A01 T00701056  RH  041%=      5-min Rain = 0
KES1 192002Z 33016KT 07/M06 A3027 RMK A01 T00681057  RH  040%=      5-min Rain = 0
KES1 192003Z 32014KT 07/M06 A3027 RMK A01 T00661057  RH  041%=      5-min Rain = 0
KES1 192004Z 33017KT 07/M05 A3027 RMK A01 T00671054  RH  042%=      5-min Rain = 0
KES1 192005Z 33016KT 07/M06 A3027 RMK A01 T00691055  RH  041%=      5-min Rain = 0
KES1 192006Z 32017KT 07/M05 A3027 RMK A01 T00701053  RH  041%=      5-min Rain = 0
KES1 192007Z 32018KT 07/M05 A3027 RMK A01 T00711054  RH  040%=      5-min Rain = 0
KES1 192008Z 33018KT 07/M05 A3027 RMK A01 T00711054  RH  040%=      5-min Rain = 0
KES1 192009Z 33017KT 07/M06 A3027 RMK A01 T00711055  RH  040%=      5-min Rain = 0
KES1 192010Z 33014KT 07/M06 A3027 RMK A01 T00671057  RH  041%=      5-min Rain = 0
KES1 192011Z 33012KT 07/M06 A3027 RMK A01 T00651057  RH  041%=      5-min Rain = 0
KES1 192012Z 33012KT 07/M05 A3027 RMK A01 T00661054  RH  042%=      5-min Rain = 0
KES1 192013Z 35016G21KT 07/M05 A3027 RMK A01 T00691052  RH  042%=      5-min Rain = 0
KES1 192014Z 35019KT 07/M05 A3027 RMK A01 T00721054  RH  040%=      5-min Rain = 0
KES1 192015Z 35016KT 07/M06 A3027 RMK A01 T00711056  RH  040%=      5-min Rain = 0
KES1 192016Z 35015KT 07/M06 A3027 RMK A01 T00691057  RH  040%=      5-min Rain = 0
KES1 192017Z 35016G21KT 07/M06 A3027 RMK A01 T00691055  RH  041%=      5-min Rain = 0
KES1 192018Z 33016KT 07/M05 A3027 RMK A01 T00701054  RH  041%=      5-min Rain = 0
KES1 192019Z 34014KT 07/M06 A3027 RMK A01 T00701055  RH  041%=      5-min Rain = 0
KES1 192020Z 34013KT 07/M05 A3027 RMK A01 T00691054  RH  041%=      5-min Rain = 0
KES1 192021Z 33015KT 07/M06 A3027 RMK A01 T00691055  RH  041%=      5-min Rain = 0
KES1 192022Z 35013KT 07/M05 A3027 RMK A01 T00691054  RH  041%=      5-min Rain = 0
KES1 192023Z 35015KT 07/M05 A3027 RMK A01 T00711053  RH  041%=      5-min Rain = 0
KES1 192024Z 35014KT 07/M05 A3026 RMK A01 T00721053  RH  040%=      5-min Rain = 0
KES1 192025Z 35018KT 07/M05 A3026 RMK A01 T00741052  RH  040%=      5-min Rain = 0
KES1 192026Z 35014KT 07/M06 A3027 RMK A01 T00731055  RH  040%=      5-min Rain = 0
KES1 192027Z 35015KT 07/M05 A3027 RMK A01 T00731054  RH  040%=      5-min Rain = 0
KES1 192028Z 34016KT 07/M05 A3026 RMK A01 T00731053  RH  040%=      5-min Rain = 0
KES1 192029Z 35013KT 07/M06 A3026 RMK A01 T00731055  RH  040%=      5-min Rain = 0
KES1 192030Z 32015KT 07/M05 A3026 RMK A01 T00731053  RH  040%=      5-min Rain = 0
KES1 192031Z 31017KT 07/M05 A3027 RMK A01 T00741053  RH  040%=      5-min Rain = 0
KES1 192032Z 32016KT 08/M05 A3027 RMK A01 T00751053  RH  040%=      5-min Rain = 0
KES1 192033Z 33014KT 08/M05 A3027 RMK A01 T00751051  RH  040%=      5-min Rain = 0
KES1 192034Z 34014KT 08/M05 A3027 RMK A01 T00771050  RH  040%=      5-min Rain = 0
KES1 192035Z 35014KT 08/M05 A3027 RMK A01 T00761053  RH  039%=      5-min Rain = 0
KES1 192036Z 35014KT 07/M05 A3027 RMK A01 T00731054  RH  040%=      5-min Rain = 0
KES1 192037Z 35014KT 07/M05 A3027 RMK A01 T00741052  RH  040%=      5-min Rain = 0
KES1 192038Z 35013KT 08/M05 A3026 RMK A01 T00751053  RH  040%=      5-min Rain = 0
KES1 192039Z 00016G21KT 08/M05 A3026 RMK A01 T00781051  RH  039%=      5-min Rain = 0
KES1 192040Z 35018KT 08/M06 A3026 RMK A01 T00781056  RH  038%=      5-min Rain = 0
KES1 192041Z 34015KT 08/M06 A3027 RMK A01 T00761055  RH  039%=      5-min Rain = 0
KES1 192042Z 33016G21KT 08/M06 A3026 RMK A01 T00751056  RH  039%=      5-min Rain = 0
KES1 192043Z 31018KT 08/M06 A3026 RMK A01 T00751055  RH  039%=      5-min Rain = 0
KES1 192044Z 31017KT 08/M05 A3026 RMK A01 T00761054  RH  039%=      5-min Rain = 0
KES1 192045Z 32014KT 08/M05 A3026 RMK A01 T00771053  RH  039%=      5-min Rain = 0
KES1 192046Z 32017KT 08/M05 A3026 RMK A01 T00781053  RH  039%=      5-min Rain = 0
KES1 192047Z 32013KT 08/M05 A3026 RMK A01 T00771053  RH  039%=      5-min Rain = 0
KES1 192048Z 31014KT 08/M05 A3026 RMK A01 T00761052  RH  040%=      5-min Rain = 0
KES1 192049Z 33013KT 08/M05 A3026 RMK A01 T00761052  RH  040%=      5-min Rain = 0
KES1 192050Z 34014G21KT 08/M05 A3026 RMK A01 T00761051  RH  040%=      5-min Rain = 0
KES1 192051Z 34017G22KT 08/M05 A3026 RMK A01 T00761052  RH  040%=      5-min Rain = 0
KES1 192052Z 34016KT 08/M05 A3027 RMK A01 T00771053  RH  039%=      5-min Rain = 0
KES1 192053Z 33018KT 08/M05 A3027 RMK A01 T00771053  RH  039%=      5-min Rain = 0
KES1 192054Z 34016KT 08/M05 A3027 RMK A01 T00761054  RH  039%=      5-min Rain = 0
KES1 192055Z 34015KT 08/M05 A3027 RMK A01 T00751054  RH  040%=      5-min Rain = 0
KES1 192056Z 33014KT 07/M06 A3027 RMK A01 T00741055  RH  039%=      5-min Rain = 0
KES1 192057Z 33014KT 07/M06 A3027 RMK A01 T00731055  RH  040%=      5-min Rain = 0
KES1 192058Z 33018KT 07/M05 A3027 RMK A01 T00731054  RH  040%=      5-min Rain = 0
KES1 192059Z 33018KT 07/M06 A3027 RMK A01 T00741055  RH  039%=      5-min Rain = 0
KES1 192100Z 33017KT 08/M05 A3027 RMK A01 T00751054  RH  039%=      5-min Rain = 0
KES1 192101Z 33018KT 08/M06 A3027 RMK A01 T00761055  RH  039%=      5-min Rain = 0
KES1 192102Z 32018KT 08/M06 A3027 RMK A01 T00751056  RH  039%=      5-min Rain = 0
KES1 192103Z 33017KT 08/M06 A3027 RMK A01 T00751055  RH  039%=      5-min Rain = 0
KES1 192104Z 33013KT 07/M06 A3027 RMK A01 T00741056  RH  039%=      5-min Rain = 0
KES1 192105Z 33012KT 07/M06 A3026 RMK A01 T00731055  RH  040%=      5-min Rain = 0
KES1 192106Z 33014KT 07/M05 A3026 RMK A01 T00741054  RH  040%=      5-min Rain = 0
KES1 192107Z 33015KT 08/M05 A3026 RMK A01 T00751053  RH  040%=      5-min Rain = 0
KES1 192108Z 34017KT 08/M05 A3026 RMK A01 T00771053  RH  039%=      5-min Rain = 0
KES1 192109Z 35017G22KT 08/M06 A3026 RMK A01 T00771055  RH  039%=      5-min Rain = 0
KES1 192110Z 35015KT 08/M06 A3026 RMK A01 T00771055  RH  039%=      5-min Rain = 0
KES1 192111Z 33013KT 08/M05 A3026 RMK A01 T00771054  RH  039%=      5-min Rain = 0
KES1 192112Z 34012KT 08/M05 A3027 RMK A01 T00791053  RH  039%=      5-min Rain = 0
KES1 192113Z 33016KT 08/M05 A3027 RMK A01 T00801053  RH  039%=      5-min Rain = 0
KES1 192114Z 32017KT 08/M06 A3027 RMK A01 T00781056  RH  038%=      5-min Rain = 0
KES1 192115Z 33014KT 08/M06 A3027 RMK A01 T00771055  RH  039%=      5-min Rain = 0
KES1 192116Z 35014KT 08/M06 A3027 RMK A01 T00771056  RH  038%=      5-min Rain = 0
KES1 192117Z 34013KT 08/M06 A3027 RMK A01 T00771056  RH  038%=      5-min Rain = 0
KES1 192118Z 33014G19KT 08/M05 A3027 RMK A01 T00771054  RH  039%=      5-min Rain = 0
KES1 192119Z 33015KT 08/M05 A3027 RMK A01 T00781054  RH  039%=      5-min Rain = 0
KES1 192120Z 32014KT 08/M06 A3027 RMK A01 T00781055  RH  039%=      5-min Rain = 0
KES1 192121Z 32015KT 08/M05 A3027 RMK A01 T00781054  RH  039%=      5-min Rain = 0
KES1 192122Z 33014KT 08/M05 A3027 RMK A01 T00781054  RH  039%=      5-min Rain = 0
KES1 192123Z 32015KT 08/M05 A3027 RMK A01 T00781053  RH  039%=      5-min Rain = 0
KES1 192124Z 34011KT 08/M05 A3027 RMK A01 T00801053  RH  039%=      5-min Rain = 0
KES1 192125Z 34011KT 08/M05 A3027 RMK A01 T00801054  RH  038%=      5-min Rain = 0
KES1 192126Z 34012KT 08/M05 A3027 RMK A01 T00801052  RH  039%=      5-min Rain = 0
KES1 192127Z 34014KT 08/M05 A3027 RMK A01 T00821053  RH  038%=      5-min Rain = 0
KES1 192128Z 34015KT 08/M05 A3027 RMK A01 T00821054  RH  038%=      5-min Rain = 0
KES1 192129Z 33015KT 08/M06 A3027 RMK A01 T00811055  RH  038%=      5-min Rain = 0
KES1 192130Z 32016KT 08/M05 A3027 RMK A01 T00811053  RH  038%=      5-min Rain = 0
KES1 192131Z 33015KT 08/M05 A3027 RMK A01 T00821053  RH  038%=      5-min Rain = 0
KES1 192132Z 33016KT 08/M05 A3027 RMK A01 T00821054  RH  038%=      5-min Rain = 0
KES1 192133Z 32015KT 08/M06 A3027 RMK A01 T00801055  RH  038%=      5-min Rain = 0
KES1 192134Z 33014KT 08/M06 A3027 RMK A01 T00791055  RH  038%=      5-min Rain = 0
KES1 192135Z 34012KT 08/M06 A3027 RMK A01 T00791055  RH  038%=      5-min Rain = 0
KES1 192136Z 35011KT 08/M06 A3027 RMK A01 T00771055  RH  039%=      5-min Rain = 0
KES1 192137Z 34013KT 08/M05 A3027 RMK A01 T00771053  RH  039%=      5-min Rain = 0
KES1 192138Z 34013G18KT 08/M05 A3027 RMK A01 T00791053  RH  039%=      5-min Rain = 0
KES1 192139Z 33017KT 08/M05 A3027 RMK A01 T00811052  RH  039%=      5-min Rain = 0
KES1 192140Z 32014KT 08/M05 A3027 RMK A01 T00821051  RH  039%=      5-min Rain = 0
KES1 192141Z 32013KT 08/M05 A3027 RMK A01 T00831052  RH  038%=      5-min Rain = 0
KES1 192142Z 33015KT 08/M05 A3027 RMK A01 T00831052  RH  038%=      5-min Rain = 0
KES1 192143Z 32017KT 08/M05 A3027 RMK A01 T00831053  RH  038%=      5-min Rain = 0
KES1 192144Z 35014KT 08/M05 A3027 RMK A01 T00821053  RH  038%=      5-min Rain = 0
KES1 192145Z 35014KT 08/M05 A3027 RMK A01 T00821053  RH  038%=      5-min Rain = 0
KES1 192146Z 34011KT 08/M05 A3027 RMK A01 T00811053  RH  038%=      5-min Rain = 0
KES1 192147Z 33012KT 08/M05 A3028 RMK A01 T00821051  RH  039%=      5-min Rain = 0
KES1 192148Z 34014KT 08/M05 A3028 RMK A01 T00831051  RH  038%=      5-min Rain = 0
KES1 192149Z 32017KT 08/M05 A3027 RMK A01 T00831051  RH  038%=      5-min Rain = 0
KES1 192150Z 33017KT 08/M05 A3028 RMK A01 T00831051  RH  038%=      5-min Rain = 0
KES1 192151Z 34015KT 08/M05 A3028 RMK A01 T00811052  RH  038%=      5-min Rain = 0
KES1 192152Z 33014KT 08/M05 A3028 RMK A01 T00811051  RH  039%=      5-min Rain = 0
KES1 192153Z 33016KT 08/M05 A3028 RMK A01 T00801051  RH  039%=      5-min Rain = 0
KES1 192154Z 33017KT 08/M05 A3028 RMK A01 T00801052  RH  039%=      5-min Rain = 0
KES1 192155Z 33013KT 08/M05 A3028 RMK A01 T00791051  RH  039%=      5-min Rain = 0
KES1 192156Z 33012G18KT 08/M05 A3028 RMK A01 T00811049  RH  040%=      5-min Rain = 0
KES1 192157Z 33017G22KT 08/M05 A3028 RMK A01 T00831048  RH  039%=      5-min Rain = 0
KES1 192158Z 33015G20KT 08/M05 A3028 RMK A01 T00831050  RH  039%=      5-min Rain = 0
KES1 192159Z 33014G19KT 08/M05 A3028 RMK A01 T00821050  RH  039%=      5-min Rain = 0
KES1 192200Z 33016KT 08/M05 A3028 RMK A01 T00821050  RH  039%=      5-min Rain = 0
KES1 192201Z 34014KT 08/M05 A3028 RMK A01 T00821051  RH  038%=      5-min Rain = 0
KES1 192202Z 34015KT 08/M05 A3028 RMK A01 T00811052  RH  038%=      5-min Rain = 0
KES1 192203Z 33016KT 08/M05 A3028 RMK A01 T00811052  RH  039%=      5-min Rain = 0
KES1 192204Z 34014KT 08/M05 A3028 RMK A01 T00811051  RH  039%=      5-min Rain = 0
KES1 192205Z 34013KT 08/M05 A3028 RMK A01 T00831050  RH  039%=      5-min Rain = 0
KES1 192206Z 35017KT 08/M05 A3028 RMK A01 T00841050  RH  038%=      5-min Rain = 0
KES1 192207Z 33014KT 08/M05 A3028 RMK A01 T00831052  RH  038%=      5-min Rain = 0
KES1 192208Z 34015KT 08/M05 A3028 RMK A01 T00831051  RH  038%=      5-min Rain = 0
KES1 192209Z 33017KT 08/M05 A3028 RMK A01 T00831051  RH  038%=      5-min Rain = 0
KES1 192210Z 34014KT 08/M05 A3028 RMK A01 T00821052  RH  038%=      5-min Rain = 0
KES1 192211Z 33014KT 08/M05 A3028 RMK A01 T00821052  RH  038%=      5-min Rain = 0
KES1 192212Z 33018KT 08/M05 A3028 RMK A01 T00821052  RH  038%=      5-min Rain = 0
KES1 192213Z 32017KT 08/M05 A3028 RMK A01 T00811053  RH  038%=      5-min Rain = 0
KES1 192214Z 33014KT 08/M05 A3028 RMK A01 T00801052  RH  039%=      5-min Rain = 0
KES1 192215Z 32012KT 08/M05 A3028 RMK A01 T00791053  RH  039%=      5-min Rain = 0
KES1 192216Z 33014KT 08/M05 A3028 RMK A01 T00801051  RH  039%=      5-min Rain = 0
KES1 192217Z 33013KT 08/M05 A3028 RMK A01 T00801052  RH  039%=      5-min Rain = 0
KES1 192218Z 33011KT 08/M05 A3028 RMK A01 T00811051  RH  039%=      5-min Rain = 0
KES1 192219Z 35014G19KT 08/M05 A3028 RMK A01 T00831050  RH  039%=      5-min Rain = 0
KES1 192220Z 34015KT 08/M05 A3028 RMK A01 T00831052  RH  038%=      5-min Rain = 0
KES1 192221Z 34016KT 08/M05 A3028 RMK A01 T00821053  RH  038%=      5-min Rain = 0
KES1 192222Z 34015KT 08/M05 A3028 RMK A01 T00811053  RH  038%=      5-min Rain = 0
KES1 192223Z 34013KT 08/M05 A3028 RMK A01 T00801053  RH  039%=      5-min Rain = 0
KES1 192224Z 33013KT 08/M05 A3028 RMK A01 T00801053  RH  039%=      5-min Rain = 0
KES1 192225Z 33014KT 08/M05 A3028 RMK A01 T00791052  RH  039%=      5-min Rain = 0
KES1 192226Z 33013KT 08/M05 A3028 RMK A01 T00801051  RH  039%=      5-min Rain = 0
KES1 192227Z 33013G18KT 08/M05 A3028 RMK A01 T00811050  RH  039%=      5-min Rain = 0
KES1 192228Z 33016KT 08/M05 A3028 RMK A01 T00811051  RH  039%=      5-min Rain = 0
KES1 192229Z 33014KT 08/M05 A3028 RMK A01 T00811050  RH  039%=      5-min Rain = 0
KES1 192230Z 33015KT 08/M05 A3028 RMK A01 T00811050  RH  039%=      5-min Rain = 0
KES1 192231Z 33013KT 08/M05 A3028 RMK A01 T00811050  RH  039%=      5-min Rain = 0
KES1 192232Z 33011KT 08/M05 A3028 RMK A01 T00811050  RH  039%=      5-min Rain = 0
KES1 192233Z 33013KT 08/M05 A3028 RMK A01 T00801051  RH  039%=      5-min Rain = 0
KES1 192234Z 33015KT 08/M05 A3028 RMK A01 T00801051  RH  039%=      5-min Rain = 0
KES1 192235Z 33015KT 08/M05 A3028 RMK A01 T00801051  RH  039%=      5-min Rain = 0
KES1 192236Z 34014KT 08/M05 A3028 RMK A01 T00791051  RH  039%=      5-min Rain = 0
KES1 192237Z 34013KT 08/M05 A3028 RMK A01 T00791051  RH  039%=      5-min Rain = 0
KES1 192238Z 33013KT 08/M05 A3028 RMK A01 T00791051  RH  039%=      5-min Rain = 0
KES1 192239Z 34013KT 08/M05 A3028 RMK A01 T00791051  RH  039%=      5-min Rain = 0
KES1 192240Z 33013KT 08/M05 A3028 RMK A01 T00801051  RH  039%=      5-min Rain = 0
KES1 192241Z 35013KT 08/M05 A3028 RMK A01 T00801050  RH  039%=      5-min Rain = 0
KES1 192242Z 35014KT 08/M05 A3028 RMK A01 T00811050  RH  039%=      5-min Rain = 0
KES1 192243Z 34014KT 08/M05 A3028 RMK A01 T00801051  RH  039%=      5-min Rain = 0
KES1 192244Z 35014KT 08/M05 A3028 RMK A01 T00801050  RH  039%=      5-min Rain = 0
KES1 192245Z 35015KT 08/M05 A3028 RMK A01 T00801050  RH  039%=      5-min Rain = 0
KES1 192246Z 34014KT 08/M05 A3028 RMK A01 T00791051  RH  039%=      5-min Rain = 0
KES1 192247Z 35013KT 08/M05 A3028 RMK A01 T00791050  RH  040%=      5-min Rain = 0
KES1 192248Z 34012KT 08/M05 A3028 RMK A01 T00791049  RH  040%=      5-min Rain = 0
KES1 192249Z 35011KT 08/M05 A3028 RMK A01 T00791049  RH  040%=      5-min Rain = 0
KES1 192250Z 36013KT 08/M05 A3028 RMK A01 T00791049  RH  040%=      5-min Rain = 0
KES1 192251Z 35011KT 08/M05 A3028 RMK A01 T00791049  RH  040%=      5-min Rain = 0
KES1 192252Z 34013KT 08/M05 A3028 RMK A01 T00801048  RH  040%=      5-min Rain = 0
KES1 192253Z 35014KT 08/M05 A3028 RMK A01 T00801048  RH  040%=      5-min Rain = 0
KES1 192254Z 34015KT 08/M05 A3028 RMK A01 T00801048  RH  040%=      5-min Rain = 0
KES1 192255Z 33014KT 08/M05 A3028 RMK A01 T00801048  RH  040%=      5-min Rain = 0
KES1 192256Z 34014KT 08/M05 A3028 RMK A01 T00801048  RH  040%=      5-min Rain = 0
KES1 192257Z 34014KT 08/M05 A3028 RMK A01 T00801048  RH  040%=      5-min Rain = 0
KES1 192258Z 34013KT 08/M05 A3028 RMK A01 T00791048  RH  040%=      5-min Rain = 0
KES1 192259Z 34011KT 08/M05 A3028 RMK A01 T00791048  RH  040%=      5-min Rain = 0
KES1 192300Z 34012KT 08/M05 A3028 RMK A01 T00791047  RH  040%=      5-min Rain = 0
KES1 192301Z 34013KT 08/M05 A3028 RMK A01 T00791047  RH  040%=      5-min Rain = 0
KES1 192302Z 34012KT 08/M05 A3028 RMK A01 T00791047  RH  040%=      5-min Rain = 0
KES1 192303Z 35012KT 08/M05 A3028 RMK A01 T00781048  RH  040%=      5-min Rain = 0
KES1 192304Z 35014KT 08/M05 A3028 RMK A01 T00781048  RH  040%=      5-min Rain = 0
KES1 192305Z 34012KT 08/M05 A3028 RMK A01 T00781048  RH  040%=      5-min Rain = 0
KES1 192306Z 34011KT 08/M05 A3028 RMK A01 T00771048  RH  041%=      5-min Rain = 0
KES1 192307Z 34013KT 08/M05 A3028 RMK A01 T00771048  RH  041%=      5-min Rain = 0
KES1 192308Z 34013KT 08/M05 A3028 RMK A01 T00771048  RH  041%=      5-min Rain = 0
KES1 192309Z 34010KT 08/M05 A3028 RMK A01 T00771048  RH  041%=      5-min Rain = 0
KES1 192310Z 35011KT 08/M05 A3028 RMK A01 T00771048  RH  041%=      5-min Rain = 0
KES1 192311Z 35011KT 08/M05 A3028 RMK A01 T00771047  RH  041%=      5-min Rain = 0
KES1 192312Z 35011KT 08/M05 A3028 RMK A01 T00771047  RH  041%=      5-min Rain = 0
KES1 192313Z 35011KT 08/M05 A3028 RMK A01 T00771047  RH  041%=      5-min Rain = 0
KES1 192314Z 35010KT 08/M05 A3028 RMK A01 T00771046  RH  041%=      5-min Rain = 0
KES1 192315Z 35012KT 08/M05 A3028 RMK A01 T00771046  RH  041%=      5-min Rain = 0
KES1 192316Z 35011KT 08/M05 A3028 RMK A01 T00771046  RH  041%=      5-min Rain = 0
KES1 192317Z 35010KT 08/M05 A3028 RMK A01 T00771046  RH  041%=      5-min Rain = 0
KES1 192318Z 33011KT 08/M05 A3028 RMK A01 T00771046  RH  041%=      5-min Rain = 0
KES1 192319Z 34009KT 08/M05 A3028 RMK A01 T00771046  RH  041%=      5-min Rain = 0
KES1 192320Z 35011KT 08/M05 A3028 RMK A01 T00771046  RH  041%=      5-min Rain = 0
KES1 192321Z 34013KT 08/M05 A3028 RMK A01 T00771046  RH  041%=      5-min Rain = 0
KES1 192322Z 35011KT 08/M05 A3028 RMK A01 T00771046  RH  042%=      5-min Rain = 0
KES1 192323Z 35010KT 08/M05 A3028 RMK A01 T00761046  RH  042%=      5-min Rain = 0
KES1 192324Z 36009KT 08/M05 A3028 RMK A01 T00761046  RH  042%=      5-min Rain = 0
KES1 192325Z 36010KT 08/M05 A3028 RMK A01 T00751046  RH  042%=      5-min Rain = 0
KES1 192326Z 35009KT 08/M05 A3028 RMK A01 T00751046  RH  042%=      5-min Rain = 0
KES1 192327Z 35010KT 08/M05 A3028 RMK A01 T00751045  RH  042%=      5-min Rain = 0
KES1 192328Z 35011KT 08/M05 A3028 RMK A01 T00751046  RH  042%=      5-min Rain = 0
KES1 192329Z 35013KT 07/M05 A3028 RMK A01 T00741047  RH  042%=      5-min Rain = 0
KES1 192330Z 35012KT 07/M05 A3028 RMK A01 T00741047  RH  042%=      5-min Rain = 0
KES1 192331Z 34010KT 07/M05 A3028 RMK A01 T00741047  RH  042%=      5-min Rain = 0
KES1 192332Z 34010KT 07/M05 A3028 RMK A01 T00741046  RH  042%=      5-min Rain = 0
KES1 192333Z 36009KT 07/M05 A3028 RMK A01 T00731047  RH  042%=      5-min Rain = 0
KES1 192334Z 35010KT 07/M05 A3028 RMK A01 T00731046  RH  042%=      5-min Rain = 0
KES1 192335Z 35010KT 07/M05 A3028 RMK A01 T00721047  RH  043%=      5-min Rain = 0
KES1 192336Z 36010KT 07/M05 A3028 RMK A01 T00721047  RH  043%=      5-min Rain = 0
KES1 192337Z 35010KT 07/M05 A3028 RMK A01 T00721047  RH  043%=      5-min Rain = 0
KES1 192338Z 35009KT 07/M05 A3028 RMK A01 T00711047  RH  043%=      5-min Rain = 0
KES1 192339Z 00008KT 07/M05 A3028 RMK A01 T00711047  RH  043%=      5-min Rain = 0
KES1 192340Z 36008KT 07/M05 A3028 RMK A01 T00701047  RH  043%=      5-min Rain = 0
KES1 192341Z 36009KT 07/M05 A3028 RMK A01 T00701047  RH  043%=      5-min Rain = 0
KES1 192342Z 36008KT 07/M05 A3028 RMK A01 T00701047  RH  043%=      5-min Rain = 0
KES1 192343Z 36008KT 07/M05 A3028 RMK A01 T00691047  RH  044%=      5-min Rain = 0
KES1 192344Z 36009KT 07/M05 A3028 RMK A01 T00681047  RH  044%=      5-min Rain = 0
KES1 192345Z 36008KT 07/M05 A3028 RMK A01 T00681046  RH  044%=      5-min Rain = 0
KES1 192346Z 00008KT 07/M05 A3029 RMK A01 T00681046  RH  044%=      5-min Rain = 0
KES1 192347Z 01008KT 07/M05 A3028 RMK A01 T00671046  RH  044%=      5-min Rain = 0
KES1 192348Z 01009KT 07/M05 A3028 RMK A01 T00671046  RH  044%=      5-min Rain = 0
KES1 192349Z 01008KT 07/M05 A3028 RMK A01 T00661047  RH  044%=      5-min Rain = 0
KES1 192350Z 01007KT 07/M05 A3028 RMK A01 T00661047  RH  044%=      5-min Rain = 0
KES1 192351Z 01007KT 07/M05 A3028 RMK A01 T00651047  RH  045%=      5-min Rain = 0
KES1 192352Z 01008KT 06/M05 A3028 RMK A01 T00641047  RH  045%=      5-min Rain = 0
KES1 192353Z 01007KT 06/M05 A3028 RMK A01 T00641047  RH  045%=      5-min Rain = 0
KES1 192354Z 01007KT 06/M05 A3028 RMK A01 T00631047  RH  045%=      5-min Rain = 0
KES1 192355Z 01008KT 06/M05 A3029 RMK A01 T00621046  RH  046%=      5-min Rain = 0
KES1 192356Z 01007KT 06/M05 A3029 RMK A01 T00621046  RH  046%=      5-min Rain = 0
KES1 192357Z 01007KT 06/M05 A3029 RMK A01 T00611046  RH  046%=      5-min Rain = 0
KES1 192358Z 01006KT 06/M05 A3029 RMK A01 T00611046  RH  046%=      5-min Rain = 0
KES1 192359Z 01006KT 06/M05 A3029 RMK A01 T00601046  RH  047%=      5-min Rain = 0
KES1 200000Z 01006KT 06/M05 A3029 RMK A01 T00601045  RH  047%=      5-min Rain = 0
KES1 200001Z 01007KT 06/M05 A3029 RMK A01 T00591045  RH  047%=      5-min Rain = 0
KES1 200002Z 01007KT 06/M05 A3029 RMK A01 T00591045  RH  047%=      5-min Rain = 0
KES1 200003Z 01006KT 06/M05 A3029 RMK A01 T00591045  RH  047%=      5-min Rain = 0
KES1 200004Z 00006KT 06/M05 A3029 RMK A01 T00591045  RH  047%=      5-min Rain = 0
KES1 200005Z 00005KT 06/M04 A3029 RMK A01 T00591044  RH  048%=      5-min Rain = 0
KES1 200006Z 00005KT 06/M04 A3029 RMK A01 T00581044  RH  048%=      5-min Rain = 0
KES1 200007Z 00005KT 06/M05 A3029 RMK A01 T00581045  RH  048%=      5-min Rain = 0
KES1 200008Z 00005KT 06/M04 A3029 RMK A01 T00571044  RH  048%=      5-min Rain = 0
KES1 200009Z 01005KT 06/M04 A3029 RMK A01 T00571044  RH  048%=      5-min Rain = 0
KES1 200010Z 01004KT 06/M04 A3029 RMK A01 T00571044  RH  048%=      5-min Rain = 0
KES1 200011Z 02004KT 06/M04 A3029 RMK A01 T00561044  RH  048%=      5-min Rain = 0
KES1 200012Z 02004KT 06/M05 A3029 RMK A01 T00551045  RH  049%=      5-min Rain = 0
KES1 200013Z 02004KT 06/M05 A3029 RMK A01 T00551045  RH  049%=      5-min Rain = 0
KES1 200014Z 02004KT 05/M05 A3029 RMK A01 T00541045  RH  049%=      5-min Rain = 0
KES1 200015Z 02004KT 05/M05 A3029 RMK A01 T00541045  RH  049%=      5-min Rain = 0
KES1 200016Z 02005KT 05/M05 A3029 RMK A01 T00531045  RH  049%=      5-min Rain = 0
KES1 200017Z 02005KT 05/M05 A3029 RMK A01 T00531045  RH  049%=      5-min Rain = 0
KES1 200018Z 02005KT 05/M05 A3029 RMK A01 T00521045  RH  049%=      5-min Rain = 0
KES1 200019Z 02005KT 05/M05 A3029 RMK A01 T00521045  RH  050%=      5-min Rain = 0
KES1 200020Z 02006KT 05/M05 A3029 RMK A01 T00511046  RH  050%=      5-min Rain = 0
KES1 200021Z 02006KT 05/M05 A3029 RMK A01 T00501046  RH  050%=      5-min Rain = 0
KES1 200022Z 02006KT 05/M05 A3029 RMK A01 T00491046  RH  050%=      5-min Rain = 0
KES1 200023Z 01006KT 05/M05 A3029 RMK A01 T00491046  RH  050%=      5-min Rain = 0
KES1 200024Z 01006KT 05/M05 A3029 RMK A01 T00491046  RH  050%=      5-min Rain = 0
KES1 200025Z 01006KT 05/M05 A3029 RMK A01 T00491046  RH  050%=      5-min Rain = 0
KES1 200026Z 01006KT 05/M05 A3029 RMK A01 T00481046  RH  051%=      5-min Rain = 0
KES1 200027Z 01005KT 05/M05 A3029 RMK A01 T00481045  RH  051%=      5-min Rain = 0
KES1 200028Z 01006KT 05/M05 A3029 RMK A01 T00481045  RH  051%=      5-min Rain = 0
KES1 200029Z 01006KT 05/M05 A3029 RMK A01 T00471045  RH  051%=      5-min Rain = 0
KES1 200030Z 01006KT 05/M05 A3029 RMK A01 T00481045  RH  051%=      5-min Rain = 0
KES1 200031Z 01007KT 05/M05 A3029 RMK A01 T00471045  RH  051%=      5-min Rain = 0
KES1 200032Z 02007KT 05/M05 A3029 RMK A01 T00461045  RH  051%=      5-min Rain = 0
KES1 200033Z 02007KT 05/M05 A3029 RMK A01 T00451046  RH  052%=      5-min Rain = 0
KES1 200034Z 02007KT 04/M05 A3029 RMK A01 T00441046  RH  052%=      5-min Rain = 0
KES1 200035Z 01007KT 04/M05 A3029 RMK A01 T00431046  RH  052%=      5-min Rain = 0
KES1 200036Z 01007KT 04/M05 A3029 RMK A01 T00421046  RH  053%=      5-min Rain = 0
KES1 200037Z 01007KT 04/M05 A3029 RMK A01 T00421045  RH  053%=      5-min Rain = 0
KES1 200038Z 01007KT 04/M05 A3029 RMK A01 T00411045  RH  053%=      5-min Rain = 0
KES1 200039Z 01007KT 04/M05 A3029 RMK A01 T00411045  RH  053%=      5-min Rain = 0
KES1 200040Z 01007KT 04/M05 A3029 RMK A01 T00411045  RH  053%=      5-min Rain = 0
KES1 200041Z 01007KT 04/M05 A3029 RMK A01 T00411045  RH  053%=      5-min Rain = 0
KES1 200042Z 01007KT 04/M05 A3029 RMK A01 T00411045  RH  054%=      5-min Rain = 0
KES1 200043Z 02007KT 04/M05 A3029 RMK A01 T00401045  RH  054%=      5-min Rain = 0
KES1 200044Z 02007KT 04/M05 A3029 RMK A01 T00391046  RH  054%=      5-min Rain = 0
KES1 200045Z 02007KT 04/M05 A3029 RMK A01 T00371046  RH  054%=      5-min Rain = 0
KES1 200046Z 02007KT 04/M05 A3029 RMK A01 T00361046  RH  055%=      5-min Rain = 0
KES1 200047Z 02006KT 04/M05 A3029 RMK A01 T00361046  RH  055%=      5-min Rain = 0
KES1 200048Z 02006KT 04/M05 A3029 RMK A01 T00351046  RH  055%=      5-min Rain = 0
KES1 200049Z 02006KT 04/M05 A3029 RMK A01 T00351046  RH  055%=      5-min Rain = 0
KES1 200050Z 02005KT 04/M05 A303 RMK A01 T00351046  RH  055%=      5-min Rain = 0
KES1 200051Z 02005KT 04/M05 A303 RMK A01 T00351046  RH  055%=      5-min Rain = 0
KES1 200052Z 03005KT 04/M05 A303 RMK A01 T00351046  RH  055%=      5-min Rain = 0
KES1 200053Z 03005KT 04/M05 A303 RMK A01 T00351047  RH  055%=      5-min Rain = 0
KES1 200054Z 03005KT 03/M05 A303 RMK A01 T00341048  RH  055%=      5-min Rain = 0
KES1 200055Z 03004KT 03/M05 A303 RMK A01 T00341048  RH  055%=      5-min Rain = 0
KES1 200056Z 03004KT 03/M05 A303 RMK A01 T00331048  RH  055%=      5-min Rain = 0
KES1 200057Z 03004KT 03/M05 A303 RMK A01 T00331049  RH  055%=      5-min Rain = 0
KES1 200058Z 04005KT 03/M05 A303 RMK A01 T00321049  RH  055%=      5-min Rain = 0
KES1 200059Z 04005KT 03/M05 A303 RMK A01 T00311049  RH  056%=      5-min Rain = 0
KES1 200100Z 04005KT 03/M05 A303 RMK A01 T00301050  RH  056%=      5-min Rain = 0
KES1 200101Z 05004KT 03/M05 A303 RMK A01 T00291050  RH  056%=      5-min Rain = 0
KES1 200102Z 06004KT 03/M05 A303 RMK A01 T00281050  RH  056%=      5-min Rain = 0
KES1 200103Z 08004KT 03/M05 A303 RMK A01 T00271051  RH  057%=      5-min Rain = 0
KES1 200104Z 07005KT 03/M05 A303 RMK A01 T00251051  RH  057%=      5-min Rain = 0
KES1 200105Z 08005KT 02/M05 A303 RMK A01 T00241051  RH  058%=      5-min Rain = 0
KES1 200106Z 09005KT 02/M05 A303 RMK A01 T00221052  RH  058%=      5-min Rain = 0
KES1 200107Z 09005KT 02/M05 A303 RMK A01 T00211052  RH  059%=      5-min Rain = 0
KES1 200108Z 09005KT 02/M05 A303 RMK A01 T00201052  RH  059%=      5-min Rain = 0
KES1 200109Z 10005KT 02/M05 A303 RMK A01 T00181052  RH  060%=      5-min Rain = 0
KES1 200110Z 10005KT 02/M05 A303 RMK A01 T00161053  RH  060%=      5-min Rain = 0
KES1 200111Z 10006KT 02/M05 A303 RMK A01 T00151052  RH  061%=      5-min Rain = 0
KES1 200112Z 11006KT 02/M05 A303 RMK A01 T00151052  RH  061%=      5-min Rain = 0
KES1 200113Z 11006KT 02/M05 A303 RMK A01 T00161050  RH  061%=      5-min Rain = 0
KES1 200114Z 10006KT 02/M05 A303 RMK A01 T00181050  RH  061%=      5-min Rain = 0
KES1 200115Z 10007KT 02/M05 A303 RMK A01 T00191051  RH  060%=      5-min Rain = 0
KES1 200116Z 09007KT 02/M05 A303 RMK A01 T00201052  RH  059%=      5-min Rain = 0
KES1 200117Z 09007KT 02/M05 A303 RMK A01 T00191053  RH  058%=      5-min Rain = 0
KES1 200118Z 08006KT 02/M06 A303 RMK A01 T00201055  RH  058%=      5-min Rain = 0
KES1 200119Z 08007KT 02/M06 A303 RMK A01 T00201057  RH  057%=      5-min Rain = 0
KES1 200120Z 07007KT 02/M06 A3031 RMK A01 T00211058  RH  056%=      5-min Rain = 0
KES1 200121Z 07007KT 02/M06 A3031 RMK A01 T00221059  RH  055%=      5-min Rain = 0
KES1 200122Z 06007KT 02/M06 A3031 RMK A01 T00221060  RH  055%=      5-min Rain = 0
KES1 200123Z 06007KT 02/M06 A3031 RMK A01 T00211061  RH  055%=      5-min Rain = 0
KES1 200124Z 06007KT 02/M06 A3031 RMK A01 T00211062  RH  054%=      5-min Rain = 0
KES1 200125Z 06007KT 02/M06 A3031 RMK A01 T00211063  RH  054%=      5-min Rain = 0
KES1 200126Z 06007KT 02/M06 A303 RMK A01 T00201063  RH  054%=      5-min Rain = 0
KES1 200127Z 06006KT 02/M06 A303 RMK A01 T00201064  RH  054%=      5-min Rain = 0
KES1 200128Z 06006KT 02/M06 A303 RMK A01 T00201064  RH  054%=      5-min Rain = 0
KES1 200129Z 05006KT 02/M07 A303 RMK A01 T00201065  RH  053%=      5-min Rain = 0
KES1 200130Z 05006KT 02/M07 A303 RMK A01 T00211065  RH  053%=      5-min Rain = 0
KES1 200131Z 06006KT 02/M06 A303 RMK A01 T00211064  RH  053%=      5-min Rain = 0
KES1 200132Z 05006KT 02/M07 A3029 RMK A01 T00201065  RH  053%=      5-min Rain = 0
KES1 200133Z 06006KT 02/M07 A3029 RMK A01 T00191065  RH  053%=      5-min Rain = 0
KES1 200134Z 05006KT 02/M07 A3029 RMK A01 T00191066  RH  053%=      5-min Rain = 0
KES1 200135Z 06006KT 02/M07 A3029 RMK A01 T00191066  RH  054%=      5-min Rain = 0
KES1 200136Z 06007KT 02/M07 A3029 RMK A01 T00181066  RH  054%=      5-min Rain = 0
KES1 200137Z 06007KT 02/M07 A3029 RMK A01 T00171066  RH  054%=      5-min Rain = 0
KES1 200138Z 06007KT 02/M07 A3029 RMK A01 T00161067  RH  054%=      5-min Rain = 0
KES1 200139Z 06007KT 02/M07 A3029 RMK A01 T00151067  RH  054%=      5-min Rain = 0
KES1 200140Z 07006KT 02/M07 A3029 RMK A01 T00151067  RH  055%=      5-min Rain = 0
KES1 200141Z 07006KT 01/M07 A3029 RMK A01 T00131067  RH  055%=      5-min Rain = 0
KES1 200142Z 08006KT 01/M07 A3029 RMK A01 T00121068  RH  055%=      5-min Rain = 0
KES1 200143Z 08006KT 01/M07 A3029 RMK A01 T00121068  RH  055%=      5-min Rain = 0
KES1 200144Z 09005KT 01/M07 A3029 RMK A01 T00111068  RH  055%=      5-min Rain = 0
KES1 200145Z 10006KT 01/M07 A3029 RMK A01 T00101068  RH  056%=      5-min Rain = 0
KES1 200146Z 10007KT 01/M07 A3029 RMK A01 T00081068  RH  057%=      5-min Rain = 0
KES1 200147Z 10007KT 01/M07 A3029 RMK A01 T00081067  RH  057%=      5-min Rain = 0
KES1 200148Z 10007KT 01/M07 A3029 RMK A01 T00071067  RH  057%=      5-min Rain = 0
KES1 200149Z 10008KT 01/M07 A3029 RMK A01 T00071067  RH  057%=      5-min Rain = 0
KES1 200150Z 10008KT 01/M07 A3029 RMK A01 T00071068  RH  057%=      5-min Rain = 0
KES1 200151Z 10007KT 01/M07 A3029 RMK A01 T00071068  RH  057%=      5-min Rain = 0
KES1 200152Z 10007KT 01/M07 A3029 RMK A01 T00071068  RH  057%=      5-min Rain = 0
KES1 200153Z 10008KT 01/M07 A3029 RMK A01 T00081068  RH  057%=      5-min Rain = 0
KES1 200154Z 10007KT 01/M07 A3029 RMK A01 T00081069  RH  056%=      5-min Rain = 0
KES1 200155Z 10007KT 01/M07 A3029 RMK A01 T00091069  RH  056%=      5-min Rain = 0
KES1 200156Z 10007KT 01/M07 A3029 RMK A01 T00091070  RH  056%=      5-min Rain = 0
KES1 200157Z 10007KT 01/M07 A3029 RMK A01 T00101070  RH  055%=      5-min Rain = 0
KES1 200158Z 10007KT 01/M07 A3029 RMK A01 T00101071  RH  055%=      5-min Rain = 0
KES1 200159Z 10007KT 01/M07 A3029 RMK A01 T00101071  RH  055%=      5-min Rain = 0
KES1 200200Z 10007KT 01/M07 A3029 RMK A01 T00101072  RH  054%=      5-min Rain = 0
KES1 200201Z 09007KT 01/M07 A3029 RMK A01 T00101072  RH  054%=      5-min Rain = 0
KES1 200202Z 09007KT 01/M07 A3029 RMK A01 T00101072  RH  054%=      5-min Rain = 0
KES1 200203Z 09007KT 01/M07 A3029 RMK A01 T00101072  RH  054%=      5-min Rain = 0
KES1 200204Z 09007KT 01/M07 A3029 RMK A01 T00101072  RH  054%=      5-min Rain = 0
KES1 200205Z 08007KT 01/M07 A3028 RMK A01 T00101072  RH  054%=      5-min Rain = 0
KES1 200206Z 08007KT 01/M07 A3028 RMK A01 T00101072  RH  054%=      5-min Rain = 0
KES1 200207Z 08007KT 01/M07 A3029 RMK A01 T00101073  RH  054%=      5-min Rain = 0
KES1 200208Z 08007KT 01/M07 A3029 RMK A01 T00101072  RH  054%=      5-min Rain = 0
KES1 200209Z 07007KT 01/M07 A3029 RMK A01 T00101073  RH  054%=      5-min Rain = 0
KES1 200210Z 07008KT 01/M07 A3028 RMK A01 T00101073  RH  054%=      5-min Rain = 0
KES1 200211Z 07008KT 01/M07 A3028 RMK A01 T00101073  RH  054%=      5-min Rain = 0
KES1 200212Z 07008KT 01/M07 A3028 RMK A01 T00101073  RH  054%=      5-min Rain = 0
KES1 200213Z 07008KT 01/M07 A3029 RMK A01 T00091073  RH  054%=      5-min Rain = 0
KES1 200214Z 07007KT 01/M07 A3029 RMK A01 T00091073  RH  055%=      5-min Rain = 0
KES1 200215Z 07007KT 01/M07 A3029 RMK A01 T00081073  RH  055%=      5-min Rain = 0
KES1 200216Z 07006KT 01/M07 A3029 RMK A01 T00081073  RH  055%=      5-min Rain = 0
KES1 200217Z 08006KT 01/M07 A3029 RMK A01 T00081073  RH  055%=      5-min Rain = 0
KES1 200218Z 08006KT 01/M07 A3029 RMK A01 T00071073  RH  055%=      5-min Rain = 0
KES1 200219Z 08006KT 01/M07 A3029 RMK A01 T00071073  RH  055%=      5-min Rain = 0
KES1 200220Z 08006KT 01/M07 A3029 RMK A01 T00061073  RH  055%=      5-min Rain = 0
KES1 200221Z 08006KT 01/M07 A303 RMK A01 T00051073  RH  056%=      5-min Rain = 0
KES1 200222Z 08005KT 01/M07 A303 RMK A01 T00051073  RH  056%=      5-min Rain = 0
KES1 200223Z 09006KT 01/M07 A303 RMK A01 T00051073  RH  056%=      5-min Rain = 0
KES1 200224Z 08006KT 00/M07 A303 RMK A01 T00041073  RH  056%=      5-min Rain = 0
KES1 200225Z 09006KT 00/M07 A303 RMK A01 T00041073  RH  056%=      5-min Rain = 0
KES1 200226Z 09006KT 00/M07 A303 RMK A01 T00041073  RH  056%=      5-min Rain = 0
KES1 200227Z 09006KT 00/M07 A303 RMK A01 T00031073  RH  057%=      5-min Rain = 0
KES1 200228Z 09006KT 00/M07 A303 RMK A01 T00031073  RH  057%=      5-min Rain = 0
KES1 200229Z 09006KT 00/M07 A303 RMK A01 T00021073  RH  057%=      5-min Rain = 0
KES1 200230Z 09006KT 00/M07 A303 RMK A01 T00031073  RH  057%=      5-min Rain = 0
KES1 200231Z 08006KT 00/M07 A303 RMK A01 T00031073  RH  057%=      5-min Rain = 0
KES1 200232Z 08006KT 00/M07 A303 RMK A01 T00031073  RH  057%=      5-min Rain = 0
KES1 200233Z 08006KT 00/M07 A303 RMK A01 T00041073  RH  056%=      5-min Rain = 0
KES1 200234Z 08006KT 00/M07 A303 RMK A01 T00041073  RH  056%=      5-min Rain = 0
KES1 200235Z 07006KT 00/M07 A303 RMK A01 T00041073  RH  056%=      5-min Rain = 0
KES1 200236Z 07006KT 00/M07 A303 RMK A01 T00031074  RH  056%=      5-min Rain = 0
KES1 200237Z 06006KT 00/M07 A303 RMK A01 T00021074  RH  057%=      5-min Rain = 0
KES1 200238Z 06006KT 00/M07 A3031 RMK A01 T00021074  RH  057%=      5-min Rain = 0
KES1 200239Z 06006KT 00/M07 A3031 RMK A01 T00021073  RH  057%=      5-min Rain = 0
KES1 200240Z 06006KT 00/M07 A3031 RMK A01 T00031073  RH  057%=      5-min Rain = 0
KES1 200241Z 05006KT 00/M07 A3031 RMK A01 T00021073  RH  057%=      5-min Rain = 0
KES1 200242Z 05006KT 00/M07 A3031 RMK A01 T00021073  RH  057%=      5-min Rain = 0
KES1 200243Z 05005KT 00/M07 A3031 RMK A01 T00021073  RH  057%=      5-min Rain = 0
KES1 200244Z 05005KT 00/M07 A3031 RMK A01 T00021073  RH  057%=      5-min Rain = 0
KES1 200245Z 04004KT 00/M07 A3031 RMK A01 T00021073  RH  057%=      5-min Rain = 0
KES1 200246Z 04004KT 00/M07 A3032 RMK A01 T00021073  RH  057%=      5-min Rain = 0
KES1 200247Z 04003KT 00/M07 A3032 RMK A01 T00021073  RH  057%=      5-min Rain = 0
KES1 200248Z 04003KT 00/M07 A3032 RMK A01 T00021073  RH  057%=      5-min Rain = 0
KES1 200249Z 04003KT 00/M07 A3032 RMK A01 T00021073  RH  057%=      5-min Rain = 0
KES1 200250Z 05003KT 00/M07 A3032 RMK A01 T00031073  RH  057%=      5-min Rain = 0
KES1 200251Z 06002KT 00/M07 A3032 RMK A01 T00031073  RH  057%=      5-min Rain = 0
KES1 200252Z 08002KT 00/M07 A3031 RMK A01 T00031073  RH  057%=      5-min Rain = 0
KES1 200253Z 09003KT 00/M07 A3031 RMK A01 T00021073  RH  057%=      5-min Rain = 0
KES1 200254Z 10003KT 00/07 A3031 RMK A01 T00000-73  RH  058%=      5-min Rain = 0
KES1 200255Z 10003KT M00/M07 A3031 RMK A01 T10021074  RH  058%=      5-min Rain = 0
KES1 200256Z 10004KT M00/M07 A3032 RMK A01 T10041074  RH  059%=      5-min Rain = 0
KES1 200257Z 10004KT M01/M07 A3032 RMK A01 T10051074  RH  060%=      5-min Rain = 0
KES1 200258Z 10004KT M01/M07 A3032 RMK A01 T10061074  RH  060%=      5-min Rain = 0
KES1 200259Z 10004KT M01/M07 A3032 RMK A01 T10061074  RH  060%=      5-min Rain = 0
KES1 200300Z 10004KT M01/M07 A3032 RMK A01 T10071074  RH  060%=      5-min Rain = 0
KES1 200301Z 09004KT M01/M07 A3032 RMK A01 T10061073  RH  060%=      5-min Rain = 0
KES1 200302Z 09004KT M01/M07 A3032 RMK A01 T10061073  RH  060%=      5-min Rain = 0
KES1 200303Z 09005KT M01/M07 A3032 RMK A01 T10051073  RH  060%=      5-min Rain = 0
KES1 200304Z 09005KT M01/M07 A3032 RMK A01 T10051073  RH  060%=      5-min Rain = 0
KES1 200305Z 08005KT M01/M07 A3032 RMK A01 T10051073  RH  060%=      5-min Rain = 0
KES1 200306Z 08005KT M01/M07 A3032 RMK A01 T10051074  RH  060%=      5-min Rain = 0
KES1 200307Z 08006KT M00/M07 A3031 RMK A01 T10041073  RH  059%=      5-min Rain = 0
KES1 200308Z 07005KT M00/M07 A3031 RMK A01 T10041074  RH  059%=      5-min Rain = 0
KES1 200309Z 07005KT M00/M07 A3031 RMK A01 T10031073  RH  059%=      5-min Rain = 0
KES1 200310Z 07005KT M00/M07 A3031 RMK A01 T10031074  RH  059%=      5-min Rain = 0
KES1 200311Z 07004KT M00/M07 A3031 RMK A01 T10031074  RH  059%=      5-min Rain = 0
KES1 200312Z 07004KT M00/M07 A3032 RMK A01 T10031074  RH  059%=      5-min Rain = 0
KES1 200313Z 07004KT M00/M07 A3032 RMK A01 T10031074  RH  059%=      5-min Rain = 0
KES1 200314Z 07004KT M00/M07 A3032 RMK A01 T10031074  RH  058%=      5-min Rain = 0
KES1 200315Z 07003KT M00/M07 A3032 RMK A01 T10031074  RH  058%=      5-min Rain = 0
KES1 200316Z 07003KT M00/M07 A3032 RMK A01 T10021074  RH  058%=      5-min Rain = 0
KES1 200317Z 08002KT M00/M08 A3032 RMK A01 T10031075  RH  058%=      5-min Rain = 0
KES1 200318Z 09002KT M00/M07 A3032 RMK A01 T10031074  RH  058%=      5-min Rain = 0
KES1 200319Z 09002KT M00/M07 A3032 RMK A01 T10031074  RH  059%=      5-min Rain = 0
KES1 200320Z 09002KT M00/M07 A3032 RMK A01 T10031074  RH  059%=      5-min Rain = 0
KES1 200321Z 09003KT M00/M08 A3032 RMK A01 T10041075  RH  059%=      5-min Rain = 0
KES1 200322Z 09003KT M00/M08 A3032 RMK A01 T10031075  RH  059%=      5-min Rain = 0
KES1 200323Z 09004KT M00/M08 A3032 RMK A01 T10031075  RH  059%=      5-min Rain = 0
KES1 200324Z 08004KT M00/M08 A3032 RMK A01 T10041075  RH  059%=      5-min Rain = 0
KES1 200325Z 08004KT M01/M08 A3032 RMK A01 T10071075  RH  060%=      5-min Rain = 0
KES1 200326Z 08004KT M01/M08 A3032 RMK A01 T10091075  RH  061%=      5-min Rain = 0
KES1 200327Z 09004KT M01/M08 A3032 RMK A01 T10101075  RH  061%=      5-min Rain = 0
KES1 200328Z 09004KT M01/M08 A3032 RMK A01 T10101075  RH  061%=      5-min Rain = 0
KES1 200329Z 09004KT M01/M08 A3032 RMK A01 T10101075  RH  061%=      5-min Rain = 0
KES1 200330Z 10003KT M01/M08 A3032 RMK A01 T10101075  RH  061%=      5-min Rain = 0
KES1 200331Z 10003KT M01/M07 A3032 RMK A01 T10091074  RH  061%=      5-min Rain = 0
KES1 200332Z 10003KT M01/M07 A3032 RMK A01 T10081074  RH  061%=      5-min Rain = 0
KES1 200333Z 10003KT M01/M07 A3032 RMK A01 T10071074  RH  060%=      5-min Rain = 0
KES1 200334Z 10003KT M01/M07 A3032 RMK A01 T10061074  RH  060%=      5-min Rain = 0
KES1 200335Z 10003KT M01/M07 A3032 RMK A01 T10051074  RH  059%=      5-min Rain = 0
KES1 200336Z 10003KT M00/M07 A3032 RMK A01 T10041074  RH  059%=      5-min Rain = 0
KES1 200337Z 10003KT M00/M07 A3032 RMK A01 T10041074  RH  059%=      5-min Rain = 0
KES1 200338Z 10003KT M00/M07 A3032 RMK A01 T10031074  RH  059%=      5-min Rain = 0
KES1 200339Z 10004KT M00/M07 A3032 RMK A01 T10031074  RH  059%=      5-min Rain = 0
KES1 200340Z 10005KT M00/M07 A3032 RMK A01 T10041074  RH  059%=      5-min Rain = 0
KES1 200341Z 09005KT M01/M07 A3031 RMK A01 T10071074  RH  061%=      5-min Rain = 0
KES1 200342Z 09006KT M01/M08 A3031 RMK A01 T10131075  RH  062%=      5-min Rain = 0
KES1 200343Z 09006KT M02/M08 A3031 RMK A01 T10161076  RH  064%=      5-min Rain = 0
KES1 200344Z 09006KT M02/M07 A3031 RMK A01 T10151074  RH  064%=      5-min Rain = 0
KES1 200345Z 09006KT M01/M07 A3031 RMK A01 T10141074  RH  064%=      5-min Rain = 0
KES1 200346Z 09006KT M01/M07 A3031 RMK A01 T10131073  RH  064%=      5-min Rain = 0
KES1 200347Z 09006KT M01/M07 A3031 RMK A01 T10111073  RH  063%=      5-min Rain = 0
KES1 200348Z 09006KT M01/M07 A3031 RMK A01 T10101073  RH  062%=      5-min Rain = 0
KES1 200349Z 09006KT M01/M07 A3031 RMK A01 T10081072  RH  062%=      5-min Rain = 0
KES1 200350Z 09007KT M01/M07 A3031 RMK A01 T10081073  RH  061%=      5-min Rain = 0
KES1 200351Z 09007KT M01/M07 A3031 RMK A01 T10081073  RH  061%=      5-min Rain = 0
KES1 200352Z 09007KT M01/M07 A3031 RMK A01 T10081073  RH  061%=      5-min Rain = 0
KES1 200353Z 09007KT M01/M07 A3032 RMK A01 T10081073  RH  061%=      5-min Rain = 0
KES1 200354Z 09007KT M01/M07 A3032 RMK A01 T10071073  RH  061%=      5-min Rain = 0
KES1 200355Z 09007KT M01/M07 A3032 RMK A01 T10071073  RH  061%=      5-min Rain = 0
KES1 200356Z 09007KT M01/M07 A3032 RMK A01 T10071072  RH  061%=      5-min Rain = 0
KES1 200357Z 09007KT M01/M07 A3032 RMK A01 T10071072  RH  061%=      5-min Rain = 0
KES1 200358Z 09008KT M01/M07 A3032 RMK A01 T10071072  RH  061%=      5-min Rain = 0
KES1 200359Z 09008KT M01/M07 A3032 RMK A01 T10071073  RH  061%=      5-min Rain = 0
KES1 200400Z 09008KT M01/M07 A3031 RMK A01 T10071073  RH  061%=      5-min Rain = 0
KES1 200401Z 09008KT M01/M07 A3031 RMK A01 T10071073  RH  061%=      5-min Rain = 0
KES1 200402Z 09009KT M01/M07 A3031 RMK A01 T10071073  RH  061%=      5-min Rain = 0
KES1 200403Z 09009KT M01/M07 A3031 RMK A01 T10071073  RH  061%=      5-min Rain = 0
KES1 200404Z 09009KT M01/M07 A3031 RMK A01 T10071073  RH  061%=      5-min Rain = 0
KES1 200405Z 09008KT M01/M07 A3031 RMK A01 T10071073  RH  061%=      5-min Rain = 0
KES1 200406Z 09008KT M01/M07 A3031 RMK A01 T10071073  RH  061%=      5-min Rain = 0
KES1 200407Z 09007KT M01/M07 A3031 RMK A01 T10061073  RH  061%=      5-min Rain = 0
KES1 200408Z 09007KT M01/M07 A3031 RMK A01 T10061073  RH  060%=      5-min Rain = 0
KES1 200409Z 09007KT M01/M07 A3031 RMK A01 T10051073  RH  060%=      5-min Rain = 0
KES1 200410Z 09007KT M01/M07 A3031 RMK A01 T10051073  RH  060%=      5-min Rain = 0
KES1 200411Z 09007KT M01/M07 A3031 RMK A01 T10051073  RH  060%=      5-min Rain = 0
KES1 200412Z 09007KT M01/M07 A3031 RMK A01 T10051073  RH  060%=      5-min Rain = 0
KES1 200413Z 09007KT M01/M07 A3031 RMK A01 T10061074  RH  060%=      5-min Rain = 0
KES1 200414Z 09007KT M01/M07 A3031 RMK A01 T10061074  RH  060%=      5-min Rain = 0
KES1 200415Z 09007KT M01/M07 A3031 RMK A01 T10061074  RH  060%=      5-min Rain = 0
KES1 200416Z 10007KT M01/M07 A3031 RMK A01 T10061074  RH  060%=      5-min Rain = 0
KES1 200417Z 10007KT M01/M07 A3031 RMK A01 T10051074  RH  060%=      5-min Rain = 0
KES1 200418Z 09006KT M01/M08 A3031 RMK A01 T10051075  RH  059%=      5-min Rain = 0
KES1 200419Z 09007KT M01/M07 A3031 RMK A01 T10051074  RH  059%=      5-min Rain = 0
KES1 200420Z 09008KT M01/M08 A3031 RMK A01 T10051075  RH  059%=      5-min Rain = 0
KES1 200421Z 09008KT M01/M07 A3031 RMK A01 T10051074  RH  060%=      5-min Rain = 0
KES1 200422Z 09008KT M01/M07 A3031 RMK A01 T10061074  RH  060%=      5-min Rain = 0
KES1 200423Z 09008KT M01/M07 A3031 RMK A01 T10061074  RH  060%=      5-min Rain = 0
KES1 200424Z 09008KT M01/M07 A303 RMK A01 T10061074  RH  060%=      5-min Rain = 0
KES1 200425Z 09008KT M01/M07 A303 RMK A01 T10061074  RH  060%=      5-min Rain = 0
KES1 200426Z 09008KT M01/M07 A303 RMK A01 T10061074  RH  060%=      5-min Rain = 0
KES1 200427Z 09008KT M01/M07 A303 RMK A01 T10061074  RH  060%=      5-min Rain = 0
KES1 200428Z 09008KT M01/M07 A303 RMK A01 T10061074  RH  060%=      5-min Rain = 0
KES1 200429Z 10009KT M01/M08 A303 RMK A01 T10061075  RH  060%=      5-min Rain = 0
KES1 200430Z 09009KT M01/M08 A303 RMK A01 T10061075  RH  059%=      5-min Rain = 0
KES1 200431Z 09009KT M00/M08 A303 RMK A01 T10041075  RH  059%=      5-min Rain = 0
KES1 200432Z 09008KT M00/M08 A303 RMK A01 T10031076  RH  058%=      5-min Rain = 0
KES1 200433Z 09007KT M00/M08 A303 RMK A01 T10031075  RH  058%=      5-min Rain = 0
KES1 200434Z 09007KT M00/M08 A303 RMK A01 T10031075  RH  058%=      5-min Rain = 0
KES1 200435Z 10006KT M00/M08 A303 RMK A01 T10031076  RH  058%=      5-min Rain = 0
KES1 200436Z 10007KT M00/M08 A303 RMK A01 T10031076  RH  058%=      5-min Rain = 0
KES1 200437Z 09006KT M00/M08 A303 RMK A01 T10021076  RH  057%=      5-min Rain = 0
KES1 200438Z 09007KT M00/M08 A303 RMK A01 T10021077  RH  057%=      5-min Rain = 0
KES1 200439Z 09007KT M00/M08 A303 RMK A01 T10021076  RH  057%=      5-min Rain = 0
KES1 200440Z 08008KT M00/M08 A303 RMK A01 T10031076  RH  058%=      5-min Rain = 0
KES1 200441Z 08008KT M00/M08 A303 RMK A01 T10031076  RH  058%=      5-min Rain = 0
KES1 200442Z 08008KT M00/M08 A303 RMK A01 T10041076  RH  058%=      5-min Rain = 0
KES1 200443Z 08008KT M00/M08 A303 RMK A01 T10041076  RH  058%=      5-min Rain = 0
KES1 200444Z 09008KT M01/M08 A3029 RMK A01 T10051076  RH  059%=      5-min Rain = 0
KES1 200445Z 09008KT M01/M08 A3029 RMK A01 T10061076  RH  059%=      5-min Rain = 0
KES1 200446Z 10007KT M01/M08 A3029 RMK A01 T10061077  RH  059%=      5-min Rain = 0
KES1 200447Z 10006KT M01/M08 A3029 RMK A01 T10051076  RH  059%=      5-min Rain = 0
KES1 200448Z 12005KT M01/M08 A303 RMK A01 T10061076  RH  059%=      5-min Rain = 0
KES1 200449Z 13005KT M01/M08 A303 RMK A01 T10061076  RH  059%=      5-min Rain = 0
KES1 200450Z 14005KT M01/M08 A303 RMK A01 T10061077  RH  059%=      5-min Rain = 0
KES1 200451Z 14005KT M01/M08 A3031 RMK A01 T10061077  RH  059%=      5-min Rain = 0
KES1 200452Z 15005KT M01/M08 A3031 RMK A01 T10061076  RH  059%=      5-min Rain = 0
KES1 200453Z 13005KT M01/M08 A3031 RMK A01 T10061076  RH  059%=      5-min Rain = 0
KES1 200454Z 13005KT M01/M08 A3031 RMK A01 T10071076  RH  059%=      5-min Rain = 0
KES1 200455Z 12004KT M01/M08 A3031 RMK A01 T10081077  RH  060%=      5-min Rain = 0
KES1 200456Z 11004KT M01/M08 A3031 RMK A01 T10081077  RH  060%=      5-min Rain = 0
KES1 200457Z 11004KT M01/M08 A3032 RMK A01 T10081077  RH  060%=      5-min Rain = 0
KES1 200458Z 11003KT M01/M08 A3032 RMK A01 T10081077  RH  060%=      5-min Rain = 0
KES1 200459Z 13002KT M01/M08 A3032 RMK A01 T10091077  RH  060%=      5-min Rain = 0
KES1 200500Z 16002KT M01/M08 A3032 RMK A01 T10081077  RH  060%=      5-min Rain = 0
KES1 200501Z 19002KT M01/M08 A3032 RMK A01 T10091077  RH  060%=      5-min Rain = 0
KES1 200502Z 20002KT M01/M08 A3032 RMK A01 T10101077  RH  060%=      5-min Rain = 0
KES1 200503Z 22002KT M01/M08 A3032 RMK A01 T10111077  RH  061%=      5-min Rain = 0
KES1 200504Z 19002KT M01/M08 A3031 RMK A01 T10131077  RH  062%=      5-min Rain = 0
KES1 200505Z 16002KT M02/M08 A3032 RMK A01 T10151076  RH  063%=      5-min Rain = 0
KES1 200506Z 14003KT M02/M08 A3032 RMK A01 T10171076  RH  064%=      5-min Rain = 0
KES1 200507Z 12003KT M02/M08 A3032 RMK A01 T10181076  RH  064%=      5-min Rain = 0
KES1 200508Z 12003KT M02/M08 A3032 RMK A01 T10181076  RH  065%=      5-min Rain = 0
KES1 200509Z 11003KT M02/M08 A3032 RMK A01 T10201077  RH  065%=      5-min Rain = 0
KES1 200510Z 11004KT M02/M08 A3032 RMK A01 T10211076  RH  066%=      5-min Rain = 0
KES1 200511Z 12004KT M02/M08 A3032 RMK A01 T10221076  RH  066%=      5-min Rain = 0
KES1 200512Z 13004KT M02/M08 A3032 RMK A01 T10221076  RH  067%=      5-min Rain = 0
KES1 200513Z 16003KT M02/M08 A3033 RMK A01 T10231076  RH  067%=      5-min Rain = 0
KES1 200514Z 18003KT M02/M08 A3033 RMK A01 T10231076  RH  067%=      5-min Rain = 0
KES1 200515Z 18003KT M02/M08 A3033 RMK A01 T10241076  RH  068%=      5-min Rain = 0
KES1 200516Z 18003KT M03/M08 A3033 RMK A01 T10251076  RH  068%=      5-min Rain = 0
KES1 200517Z 17002KT M03/M08 A3033 RMK A01 T10251075  RH  068%=      5-min Rain = 0
KES1 200518Z 16002KT M03/M08 A3033 RMK A01 T10251076  RH  068%=      5-min Rain = 0
KES1 200519Z 16002KT M03/M08 A3033 RMK A01 T10251076  RH  068%=      5-min Rain = 0
KES1 200520Z 15002KT M03/M08 A3033 RMK A01 T10251075  RH  068%=      5-min Rain = 0
KES1 200521Z 11002KT M03/M08 A3032 RMK A01 T10251075  RH  069%=      5-min Rain = 0
KES1 200522Z 11002KT M03/M08 A3032 RMK A01 T10251075  RH  069%=      5-min Rain = 0
KES1 200523Z 12002KT M03/M08 A3032 RMK A01 T10251075  RH  068%=      5-min Rain = 0
KES1 200524Z 13002KT M03/M08 A3033 RMK A01 T10251075  RH  068%=      5-min Rain = 0
KES1 200525Z 16002KT M03/M08 A3033 RMK A01 T10251075  RH  068%=      5-min Rain = 0
KES1 200526Z 19002KT M03/M08 A3033 RMK A01 T10251076  RH  068%=      5-min Rain = 0
KES1 200527Z 18002KT M03/M08 A3033 RMK A01 T10271077  RH  068%=      5-min Rain = 0
KES1 200528Z 16002KT M03/M08 A3033 RMK A01 T10291077  RH  070%=      5-min Rain = 0
KES1 200529Z 14002KT M03/M08 A3033 RMK A01 T10301076  RH  070%=      5-min Rain = 0
KES1 200530Z 12002KT M03/M08 A3033 RMK A01 T10291076  RH  070%=      5-min Rain = 0
KES1 200531Z 12003KT M03/M08 A3033 RMK A01 T10291076  RH  070%=      5-min Rain = 0
KES1 200532Z 13003KT M03/M08 A3033 RMK A01 T10301077  RH  070%=      5-min Rain = 0
KES1 200533Z 15003KT M03/M08 A3033 RMK A01 T10311077  RH  071%=      5-min Rain = 0
KES1 200534Z 17002KT M03/M08 A3033 RMK A01 T10311077  RH  071%=      5-min Rain = 0
KES1 200535Z 19003KT M03/M08 A3033 RMK A01 T10331078  RH  071%=      5-min Rain = 0
KES1 200536Z 17003KT M04/M08 A3033 RMK A01 T10351079  RH  072%=      5-min Rain = 0
KES1 200537Z 15003KT M03/M08 A3033 RMK A01 T10341077  RH  072%=      5-min Rain = 0
KES1 200538Z 14003KT M03/M08 A3033 RMK A01 T10301075  RH  071%=      5-min Rain = 0
KES1 200539Z 13003KT M03/M08 A3033 RMK A01 T10281075  RH  070%=      5-min Rain = 0
KES1 200540Z 13002KT M03/M08 A3034 RMK A01 T10271076  RH  069%=      5-min Rain = 0
KES1 200541Z 14002KT M03/M08 A3034 RMK A01 T10261076  RH  069%=      5-min Rain = 0
KES1 200542Z 17002KT M03/M08 A3034 RMK A01 T10261076  RH  068%=      5-min Rain = 0
KES1 200543Z 17003KT M03/M08 A3033 RMK A01 T10251076  RH  068%=      5-min Rain = 0
KES1 200544Z 16003KT M03/M08 A3033 RMK A01 T10281078  RH  068%=      5-min Rain = 0
KES1 200545Z 16003KT M03/M08 A3033 RMK A01 T10301078  RH  069%=      5-min Rain = 0
KES1 200546Z 15003KT M03/M08 A3033 RMK A01 T10311078  RH  070%=      5-min Rain = 0
KES1 200547Z 16003KT M03/M08 A3034 RMK A01 T10301077  RH  070%=      5-min Rain = 0
KES1 200548Z 17003KT M03/M08 A3034 RMK A01 T10281076  RH  070%=      5-min Rain = 0
KES1 200549Z 17004KT M03/M08 A3034 RMK A01 T10271076  RH  069%=      5-min Rain = 0
KES1 200550Z 16005KT M03/M08 A3033 RMK A01 T10261076  RH  069%=      5-min Rain = 0
KES1 200551Z 15005KT M03/M08 A3033 RMK A01 T10261076  RH  068%=      5-min Rain = 0
KES1 200552Z 12005KT M03/M08 A3033 RMK A01 T10281079  RH  068%=      5-min Rain = 0
KES1 200553Z 12005KT M03/M08 A3033 RMK A01 T10341081  RH  070%=      5-min Rain = 0
KES1 200554Z 12005KT M04/M08 A3033 RMK A01 T10351079  RH  071%=      5-min Rain = 0
KES1 200555Z 13005KT M03/M08 A3033 RMK A01 T10331076  RH  072%=      5-min Rain = 0
KES1 200556Z 14004KT M03/M08 A3034 RMK A01 T10311075  RH  071%=      5-min Rain = 0
KES1 200557Z 15003KT M03/M08 A3034 RMK A01 T10291075  RH  071%=      5-min Rain = 0
KES1 200558Z 14003KT M03/M08 A3034 RMK A01 T10291075  RH  070%=      5-min Rain = 0
KES1 200559Z 13002KT M03/M08 A3034 RMK A01 T10291076  RH  070%=      5-min Rain = 0

Page generated in 0.0839 seconds.